FIN201 KDFW-EFHK
Flight info
| Callsign | FIN201 |
|---|---|
| Flight time | 8h 56m |
| Altitude | 39000 |
| Route | AKUNA9 MLC DCT SGF DCT KK51I DCT KK60K DCT KG69M DCT NOSIK DCT RJ DCT 50N070W DCT FOXXE DCT ENNSO/M083F390 DCT 58N050W 6030N04000W 62N030W/M084F410 6230N02000W 63N010W DCT ISVIG/N0488F410 DCT OLGUV DCT UXADA Y349 AMROT Y362 LAKUT |
| Aircraft | A359/H-SDE2E3GHIJ3J4J5LM1ORWXY/LB1D1 |
Departure
| Time | 2026-05-07 03:26 |
|---|---|
| Airport | Dallas Fort Worth International Airport (KDFW) |
Arrival
| Time | 2026-05-07 12:22 |
|---|---|
| Airport | Helsinki Vantaa Airport (EFHK) |
| Time | Latitude | Longitude | Altitude | Speed | Heading |
|---|---|---|---|---|---|
| 2026-05-07 02:50 | 32.89769 | -97.04569 | 615 ft | 0 kts | 91° |
| 2026-05-07 03:11 | 32.89769 | -97.04559 | 604 ft | 5 kts | 91° |
| 2026-05-07 03:11 | 32.89770 | -97.04584 | 617 ft | 4 kts | 91° |
| 2026-05-07 03:11 | 32.89770 | -97.04616 | 614 ft | 4 kts | 91° |
| 2026-05-07 03:12 | 32.89771 | -97.04642 | 615 ft | 4 kts | 93° |
| 2026-05-07 03:12 | 32.89777 | -97.04664 | 604 ft | 4 kts | 165° |
| 2026-05-07 03:12 | 32.89801 | -97.04666 | 604 ft | 5 kts | 180° |
| 2026-05-07 03:12 | 32.89819 | -97.04666 | 604 ft | 1 kts | 180° |
| 2026-05-07 03:13 | 32.89811 | -97.04669 | 604 ft | 0 kts | 180° |
| 2026-05-07 03:15 | 32.89802 | -97.04671 | 604 ft | 2 kts | 188° |
| 2026-05-07 03:15 | 32.89781 | -97.04682 | 603 ft | 4 kts | 211° |
| 2026-05-07 03:15 | 32.89761 | -97.04716 | 603 ft | 6 kts | 255° |
| 2026-05-07 03:15 | 32.89758 | -97.04772 | 603 ft | 7 kts | 271° |
| 2026-05-07 03:16 | 32.89759 | -97.04825 | 617 ft | 6 kts | 270° |
| 2026-05-07 03:16 | 32.89758 | -97.04868 | 617 ft | 5 kts | 263° |
| 2026-05-07 03:16 | 32.89748 | -97.04885 | 609 ft | 1 kts | 217° |
| 2026-05-07 03:16 | 32.89740 | -97.04887 | 619 ft | 2 kts | 189° |
| 2026-05-07 03:17 | 32.89683 | -97.04886 | 622 ft | 14 kts | 180° |
| 2026-05-07 03:17 | 32.89580 | -97.04887 | 613 ft | 16 kts | 180° |
| 2026-05-07 03:17 | 32.89465 | -97.04888 | 615 ft | 17 kts | 181° |
| 2026-05-07 03:17 | 32.89361 | -97.04888 | 603 ft | 14 kts | 180° |
| 2026-05-07 03:18 | 32.89247 | -97.04889 | 599 ft | 18 kts | 180° |
| 2026-05-07 03:18 | 32.89129 | -97.04889 | 597 ft | 15 kts | 180° |
| 2026-05-07 03:18 | 32.89016 | -97.04890 | 597 ft | 17 kts | 180° |
| 2026-05-07 03:18 | 32.88890 | -97.04890 | 595 ft | 19 kts | 180° |
| 2026-05-07 03:19 | 32.88807 | -97.04890 | 593 ft | 12 kts | 180° |
| 2026-05-07 03:19 | 32.88717 | -97.04890 | 593 ft | 14 kts | 180° |
| 2026-05-07 03:19 | 32.88620 | -97.04891 | 595 ft | 14 kts | 180° |
| 2026-05-07 03:19 | 32.88519 | -97.04891 | 595 ft | 15 kts | 180° |
| 2026-05-07 03:20 | 32.88446 | -97.04891 | 595 ft | 16 kts | 180° |
| 2026-05-07 03:20 | 32.88287 | -97.04891 | 595 ft | 13 kts | 180° |
| 2026-05-07 03:20 | 32.88196 | -97.04893 | 596 ft | 14 kts | 181° |
| 2026-05-07 03:20 | 32.88130 | -97.04895 | 596 ft | 15 kts | 181° |
| 2026-05-07 03:21 | 32.88017 | -97.04897 | 593 ft | 17 kts | 181° |
| 2026-05-07 03:21 | 32.87985 | -97.04923 | 592 ft | 4 kts | 255° |
| 2026-05-07 03:21 | 32.87984 | -97.04961 | 593 ft | 5 kts | 269° |
| 2026-05-07 03:21 | 32.87984 | -97.05028 | 593 ft | 7 kts | 269° |
| 2026-05-07 03:22 | 32.87986 | -97.05064 | 594 ft | 6 kts | 287° |
| 2026-05-07 03:22 | 32.88010 | -97.05086 | 595 ft | 4 kts | 332° |
| 2026-05-07 03:22 | 32.88028 | -97.05090 | 595 ft | 2 kts | 354° |
| 2026-05-07 03:22 | 32.88034 | -97.05090 | 595 ft | 0 kts | 360° |
| 2026-05-07 03:25 | 32.88046 | -97.05090 | 596 ft | 13 kts | 360° |
| 2026-05-07 03:25 | 32.88380 | -97.05089 | 596 ft | 80 kts | 0° |
| 2026-05-07 03:25 | 32.89122 | -97.05084 | 596 ft | 132 kts | 0° |
| 2026-05-07 03:26 | 32.90183 | -97.05084 | 796 ft | 160 kts | 1° |
| 2026-05-07 03:26 | 32.91243 | -97.05107 | 1542 ft | 143 kts | 360° |
| 2026-05-07 03:26 | 32.92275 | -97.05150 | 2025 ft | 154 kts | 3° |
| 2026-05-07 03:26 | 32.93382 | -97.05178 | 2430 ft | 165 kts | 2° |
| 2026-05-07 03:27 | 32.94569 | -97.05199 | 2815 ft | 176 kts | 2° |
| 2026-05-07 03:27 | 32.95841 | -97.05216 | 3156 ft | 192 kts | 2° |
| 2026-05-07 03:27 | 32.97252 | -97.05230 | 3344 ft | 217 kts | 2° |
| 2026-05-07 03:27 | 32.98819 | -97.05246 | 3801 ft | 230 kts | 1° |
| 2026-05-07 03:28 | 33.00447 | -97.05263 | 4373 ft | 237 kts | 0° |
| 2026-05-07 03:28 | 33.02122 | -97.05280 | 4965 ft | 244 kts | 359° |
| 2026-05-07 03:28 | 33.03837 | -97.05298 | 5583 ft | 249 kts | 358° |
| 2026-05-07 03:28 | 33.05582 | -97.05314 | 6301 ft | 252 kts | 357° |
| 2026-05-07 03:29 | 33.07350 | -97.05386 | 6979 ft | 255 kts | 352° |
| 2026-05-07 03:29 | 33.09156 | -97.05619 | 7461 ft | 268 kts | 349° |
| 2026-05-07 03:29 | 33.11035 | -97.05905 | 8071 ft | 275 kts | 348° |
| 2026-05-07 03:29 | 33.12953 | -97.06196 | 8761 ft | 281 kts | 347° |
| 2026-05-07 03:30 | 33.14946 | -97.06234 | 9427 ft | 294 kts | 2° |
| 2026-05-07 03:30 | 33.16921 | -97.05368 | 10060 ft | 312 kts | 26° |
| 2026-05-07 03:30 | 33.18792 | -97.03922 | 10431 ft | 330 kts | 30° |
| 2026-05-07 03:30 | 33.20742 | -97.02302 | 10688 ft | 350 kts | 30° |
| 2026-05-07 03:31 | 33.22787 | -97.00604 | 10943 ft | 368 kts | 30° |
| 2026-05-07 03:31 | 33.24933 | -96.98833 | 11324 ft | 380 kts | 30° |
| 2026-05-07 03:31 | 33.27101 | -96.97050 | 11843 ft | 386 kts | 30° |
| 2026-05-07 03:31 | 33.29335 | -96.95218 | 12429 ft | 392 kts | 30° |
| 2026-05-07 03:32 | 33.31598 | -96.93365 | 13001 ft | 397 kts | 30° |
| 2026-05-07 03:32 | 33.33886 | -96.91494 | 13581 ft | 401 kts | 30° |
| 2026-05-07 03:32 | 33.36204 | -96.89597 | 14141 ft | 405 kts | 29° |
| 2026-05-07 03:32 | 33.38553 | -96.87676 | 14636 ft | 410 kts | 29° |
| 2026-05-07 03:33 | 33.40915 | -96.85742 | 15158 ft | 414 kts | 29° |
| 2026-05-07 03:33 | 33.43305 | -96.83785 | 15677 ft | 418 kts | 29° |
| 2026-05-07 03:33 | 33.45771 | -96.81915 | 16175 ft | 420 kts | 24° |
| 2026-05-07 03:33 | 33.48336 | -96.80227 | 16689 ft | 423 kts | 22° |
| 2026-05-07 03:34 | 33.50941 | -96.78562 | 17266 ft | 426 kts | 21° |
| 2026-05-07 03:34 | 33.53571 | -96.76884 | 17792 ft | 431 kts | 21° |
| 2026-05-07 03:34 | 33.56227 | -96.75185 | 18353 ft | 435 kts | 21° |
| 2026-05-07 03:34 | 33.58911 | -96.73466 | 18809 ft | 439 kts | 21° |
| 2026-05-07 03:35 | 33.61589 | -96.71749 | 19254 ft | 444 kts | 21° |
| 2026-05-07 03:35 | 33.64320 | -96.69995 | 19700 ft | 448 kts | 21° |
| 2026-05-07 03:35 | 33.67085 | -96.68218 | 20147 ft | 452 kts | 20° |
| 2026-05-07 03:35 | 33.69868 | -96.66428 | 20591 ft | 457 kts | 20° |
| 2026-05-07 03:36 | 33.72683 | -96.64616 | 21041 ft | 461 kts | 20° |
| 2026-05-07 03:36 | 33.75525 | -96.62784 | 21448 ft | 465 kts | 20° |
| 2026-05-07 03:36 | 33.78393 | -96.60935 | 21908 ft | 470 kts | 20° |
| 2026-05-07 03:36 | 33.81284 | -96.59070 | 22348 ft | 475 kts | 20° |
| 2026-05-07 03:37 | 33.84215 | -96.57177 | 22801 ft | 479 kts | 20° |
| 2026-05-07 03:37 | 33.87161 | -96.55272 | 23303 ft | 483 kts | 20° |
| 2026-05-07 03:37 | 33.90135 | -96.53348 | 23750 ft | 487 kts | 20° |
| 2026-05-07 03:37 | 33.93136 | -96.51406 | 24142 ft | 492 kts | 20° |
| 2026-05-07 03:38 | 33.96160 | -96.49446 | 24521 ft | 496 kts | 20° |
| 2026-05-07 03:38 | 33.99175 | -96.47491 | 24907 ft | 500 kts | 20° |
| 2026-05-07 03:38 | 34.02246 | -96.45498 | 25290 ft | 503 kts | 20° |
| 2026-05-07 03:38 | 34.05343 | -96.43480 | 25692 ft | 508 kts | 20° |
| 2026-05-07 03:39 | 34.08388 | -96.41234 | 26030 ft | 518 kts | 25° |
| 2026-05-07 03:39 | 34.11402 | -96.38801 | 26398 ft | 523 kts | 26° |
| 2026-05-07 03:39 | 34.14432 | -96.36326 | 26770 ft | 527 kts | 26° |
| 2026-05-07 03:39 | 34.17482 | -96.33833 | 27126 ft | 531 kts | 26° |
| 2026-05-07 03:40 | 34.20549 | -96.31326 | 27483 ft | 534 kts | 26° |
| 2026-05-07 03:40 | 34.23638 | -96.28802 | 27824 ft | 538 kts | 26° |
| 2026-05-07 03:40 | 34.26752 | -96.26255 | 28168 ft | 542 kts | 26° |
| 2026-05-07 03:40 | 34.29888 | -96.23690 | 28510 ft | 545 kts | 26° |
| 2026-05-07 03:41 | 34.33048 | -96.21103 | 28903 ft | 549 kts | 26° |
| 2026-05-07 03:41 | 34.36181 | -96.18535 | 29194 ft | 554 kts | 26° |
| 2026-05-07 03:41 | 34.39384 | -96.15908 | 29526 ft | 557 kts | 26° |
| 2026-05-07 03:41 | 34.42604 | -96.13264 | 29859 ft | 561 kts | 26° |
| 2026-05-07 03:42 | 34.45840 | -96.10604 | 30180 ft | 564 kts | 26° |
| 2026-05-07 03:42 | 34.49098 | -96.07924 | 30431 ft | 567 kts | 26° |
| 2026-05-07 03:42 | 34.52368 | -96.05231 | 30723 ft | 569 kts | 26° |
| 2026-05-07 03:42 | 34.55659 | -96.02518 | 30994 ft | 572 kts | 26° |
| 2026-05-07 03:43 | 34.58958 | -95.99797 | 31320 ft | 575 kts | 26° |
| 2026-05-07 03:43 | 34.62280 | -95.97054 | 31540 ft | 579 kts | 26° |
| 2026-05-07 03:43 | 34.65618 | -95.94295 | 31780 ft | 582 kts | 26° |
| 2026-05-07 03:43 | 34.68976 | -95.91516 | 32033 ft | 585 kts | 26° |
| 2026-05-07 03:44 | 34.72341 | -95.88729 | 32289 ft | 587 kts | 26° |
| 2026-05-07 03:44 | 34.75728 | -95.85920 | 32520 ft | 590 kts | 26° |
| 2026-05-07 03:44 | 34.79132 | -95.83095 | 32747 ft | 592 kts | 26° |
| 2026-05-07 03:44 | 34.82540 | -95.80264 | 32967 ft | 595 kts | 26° |
| 2026-05-07 03:45 | 34.85962 | -95.77418 | 33242 ft | 597 kts | 26° |
| 2026-05-07 03:45 | 34.89359 | -95.74452 | 33365 ft | 605 kts | 29° |
| 2026-05-07 03:45 | 34.92677 | -95.71349 | 33561 ft | 609 kts | 31° |
| 2026-05-07 03:45 | 34.95997 | -95.68140 | 33871 ft | 608 kts | 31° |
| 2026-05-07 03:46 | 34.99306 | -95.64919 | 34171 ft | 608 kts | 31° |
| 2026-05-07 03:46 | 35.02623 | -95.61708 | 34399 ft | 608 kts | 31° |
| 2026-05-07 03:46 | 35.05933 | -95.58533 | 34676 ft | 606 kts | 30° |
| 2026-05-07 03:46 | 35.09265 | -95.55363 | 34956 ft | 605 kts | 30° |
| 2026-05-07 03:47 | 35.12602 | -95.52204 | 35302 ft | 604 kts | 30° |
| 2026-05-07 03:47 | 35.15926 | -95.49066 | 35482 ft | 605 kts | 29° |
| 2026-05-07 03:47 | 35.19264 | -95.45915 | 35671 ft | 606 kts | 29° |
| 2026-05-07 03:47 | 35.22594 | -95.42767 | 35917 ft | 605 kts | 29° |
| 2026-05-07 03:48 | 35.25923 | -95.39612 | 36172 ft | 604 kts | 29° |
| 2026-05-07 03:48 | 35.29209 | -95.36492 | 36396 ft | 604 kts | 29° |
| 2026-05-07 03:48 | 35.32522 | -95.33341 | 36614 ft | 603 kts | 29° |
| 2026-05-07 03:48 | 35.35831 | -95.30190 | 36851 ft | 602 kts | 29° |
| 2026-05-07 03:49 | 35.39141 | -95.27034 | 37142 ft | 602 kts | 29° |
| 2026-05-07 03:49 | 35.42444 | -95.23882 | 37281 ft | 603 kts | 29° |
| 2026-05-07 03:49 | 35.45765 | -95.20712 | 37409 ft | 603 kts | 29° |
| 2026-05-07 03:49 | 35.49076 | -95.17548 | 37614 ft | 603 kts | 29° |
| 2026-05-07 03:50 | 35.52381 | -95.14383 | 37824 ft | 602 kts | 29° |
| 2026-05-07 03:50 | 35.55687 | -95.11215 | 38019 ft | 601 kts | 29° |
| 2026-05-07 03:50 | 35.58984 | -95.08052 | 38184 ft | 601 kts | 29° |
| 2026-05-07 03:50 | 35.62280 | -95.04886 | 38349 ft | 601 kts | 29° |
| 2026-05-07 03:51 | 35.65571 | -95.01723 | 38546 ft | 600 kts | 28° |
| 2026-05-07 03:51 | 35.72161 | -94.95381 | 38754 ft | 602 kts | 29° |
| 2026-05-07 03:51 | 35.75413 | -94.92246 | 38881 ft | 601 kts | 29° |
| 2026-05-07 03:52 | 35.78703 | -94.89068 | 39039 ft | 600 kts | 29° |
| 2026-05-07 03:52 | 35.85277 | -94.82712 | 39107 ft | 603 kts | 29° |
| 2026-05-07 03:53 | 35.91879 | -94.76317 | 39109 ft | 603 kts | 29° |
| 2026-05-07 03:53 | 35.98472 | -94.69910 | 39119 ft | 603 kts | 29° |
| 2026-05-07 03:54 | 36.05065 | -94.63491 | 39121 ft | 603 kts | 29° |
| 2026-05-07 03:54 | 36.11648 | -94.57071 | 39118 ft | 603 kts | 29° |
| 2026-05-07 03:55 | 36.18236 | -94.50630 | 39163 ft | 603 kts | 29° |
| 2026-05-07 03:55 | 36.24830 | -94.44170 | 39136 ft | 604 kts | 29° |
| 2026-05-07 03:56 | 36.31426 | -94.37694 | 39120 ft | 604 kts | 29° |
| 2026-05-07 03:56 | 36.38012 | -94.31212 | 39139 ft | 605 kts | 29° |
| 2026-05-07 03:57 | 36.44600 | -94.24714 | 39152 ft | 605 kts | 29° |
| 2026-05-07 03:57 | 36.51137 | -94.18250 | 39117 ft | 605 kts | 29° |
| 2026-05-07 03:58 | 36.57721 | -94.11728 | 39115 ft | 605 kts | 29° |
| 2026-05-07 03:58 | 36.64300 | -94.05196 | 39123 ft | 605 kts | 29° |
| 2026-05-07 03:59 | 36.70885 | -93.98643 | 39144 ft | 605 kts | 29° |
| 2026-05-07 03:59 | 36.77461 | -93.92085 | 39133 ft | 606 kts | 29° |
| 2026-05-07 04:00 | 36.84051 | -93.85496 | 39132 ft | 606 kts | 29° |
| 2026-05-07 04:00 | 36.90634 | -93.78901 | 39125 ft | 606 kts | 29° |
| 2026-05-07 04:01 | 36.97176 | -93.72330 | 39118 ft | 607 kts | 29° |
| 2026-05-07 04:01 | 37.03759 | -93.65704 | 39127 ft | 607 kts | 29° |
| 2026-05-07 04:02 | 37.10345 | -93.59059 | 39117 ft | 607 kts | 29° |
| 2026-05-07 04:02 | 37.16923 | -93.52407 | 39116 ft | 607 kts | 29° |
| 2026-05-07 04:03 | 37.23506 | -93.45735 | 39114 ft | 607 kts | 29° |
| 2026-05-07 04:03 | 37.30083 | -93.39054 | 39117 ft | 608 kts | 29° |
| 2026-05-07 04:04 | 37.36614 | -93.32402 | 39119 ft | 609 kts | 29° |
| 2026-05-07 04:04 | 37.43015 | -93.25319 | 39117 ft | 615 kts | 34° |
| 2026-05-07 04:05 | 37.49260 | -93.17957 | 39118 ft | 615 kts | 34° |
| 2026-05-07 04:05 | 37.55521 | -93.10625 | 39119 ft | 614 kts | 34° |
| 2026-05-07 04:06 | 37.61815 | -93.03357 | 39123 ft | 614 kts | 33° |
| 2026-05-07 04:06 | 37.68141 | -92.96077 | 39173 ft | 614 kts | 33° |
| 2026-05-07 04:07 | 37.74443 | -92.88804 | 39115 ft | 614 kts | 34° |
| 2026-05-07 04:07 | 37.80739 | -92.81510 | 39117 ft | 614 kts | 34° |
| 2026-05-07 04:08 | 37.85972 | -92.75430 | 39123 ft | 614 kts | 34° |
| 2026-05-07 04:08 | 37.93279 | -92.66921 | 39162 ft | 614 kts | 34° |
| 2026-05-07 04:09 | 37.98547 | -92.60771 | 39147 ft | 614 kts | 34° |
| 2026-05-07 04:09 | 38.04787 | -92.53470 | 39146 ft | 614 kts | 34° |
| 2026-05-07 04:10 | 38.11074 | -92.46099 | 39147 ft | 614 kts | 34° |
| 2026-05-07 04:10 | 38.17352 | -92.38719 | 39202 ft | 614 kts | 34° |
| 2026-05-07 04:11 | 38.23615 | -92.31335 | 39126 ft | 612 kts | 34° |
| 2026-05-07 04:11 | 38.29846 | -92.23974 | 39100 ft | 612 kts | 34° |
| 2026-05-07 04:12 | 38.36061 | -92.16619 | 39110 ft | 613 kts | 34° |
| 2026-05-07 04:12 | 38.42318 | -92.09191 | 39118 ft | 614 kts | 34° |
| 2026-05-07 04:13 | 38.48570 | -92.01750 | 39120 ft | 614 kts | 34° |
| 2026-05-07 04:13 | 38.54749 | -91.94199 | 39117 ft | 617 kts | 37° |
| 2026-05-07 04:14 | 38.60743 | -91.86332 | 39095 ft | 619 kts | 38° |
| 2026-05-07 04:14 | 38.66734 | -91.78399 | 39112 ft | 618 kts | 38° |
| 2026-05-07 04:15 | 38.72690 | -91.70592 | 39109 ft | 616 kts | 38° |
| 2026-05-07 04:15 | 38.78692 | -91.62768 | 39104 ft | 615 kts | 38° |
| 2026-05-07 04:16 | 38.84697 | -91.54929 | 39123 ft | 616 kts | 38° |
| 2026-05-07 04:16 | 38.90697 | -91.47067 | 39124 ft | 616 kts | 38° |
| 2026-05-07 04:17 | 38.96666 | -91.39214 | 39113 ft | 613 kts | 38° |
| 2026-05-07 04:17 | 39.02627 | -91.31356 | 39111 ft | 613 kts | 38° |
| 2026-05-07 04:18 | 39.08580 | -91.23489 | 39111 ft | 613 kts | 38° |
| 2026-05-07 04:18 | 39.14527 | -91.15611 | 39115 ft | 611 kts | 39° |
| 2026-05-07 04:19 | 39.20391 | -91.07812 | 39109 ft | 608 kts | 38° |
| 2026-05-07 04:19 | 39.26283 | -90.99970 | 39104 ft | 608 kts | 38° |
| 2026-05-07 04:20 | 39.32177 | -90.92106 | 39109 ft | 609 kts | 38° |
| 2026-05-07 04:20 | 39.38057 | -90.84234 | 39108 ft | 607 kts | 39° |
| 2026-05-07 04:21 | 39.46786 | -90.72501 | 39113 ft | 602 kts | 39° |
| 2026-05-07 04:21 | 39.52604 | -90.64669 | 39118 ft | 603 kts | 39° |
| 2026-05-07 04:22 | 39.58415 | -90.56825 | 39159 ft | 604 kts | 39° |
| 2026-05-07 04:22 | 39.64170 | -90.49025 | 39118 ft | 599 kts | 39° |
| 2026-05-07 04:23 | 39.69918 | -90.41217 | 39116 ft | 598 kts | 39° |
| 2026-05-07 04:23 | 39.75664 | -90.33398 | 39118 ft | 599 kts | 39° |
| 2026-05-07 04:24 | 39.81421 | -90.25546 | 39154 ft | 600 kts | 40° |
| 2026-05-07 04:24 | 39.87157 | -90.17694 | 39119 ft | 597 kts | 40° |
| 2026-05-07 04:25 | 39.92877 | -90.09845 | 39115 ft | 597 kts | 40° |
| 2026-05-07 04:25 | 39.98588 | -90.01991 | 39110 ft | 597 kts | 40° |
| 2026-05-07 04:26 | 40.04360 | -89.94201 | 39123 ft | 595 kts | 38° |
| 2026-05-07 04:26 | 40.10254 | -89.86657 | 39100 ft | 593 kts | 37° |
| 2026-05-07 04:27 | 40.16148 | -89.79129 | 39097 ft | 592 kts | 37° |
| 2026-05-07 04:27 | 40.21973 | -89.71598 | 39100 ft | 593 kts | 38° |
| 2026-05-07 04:28 | 40.27821 | -89.63975 | 39112 ft | 592 kts | 38° |
| 2026-05-07 04:28 | 40.33627 | -89.56375 | 39102 ft | 588 kts | 38° |
| 2026-05-07 04:29 | 40.39402 | -89.48807 | 39100 ft | 587 kts | 38° |
| 2026-05-07 04:29 | 40.45184 | -89.41216 | 39098 ft | 588 kts | 38° |
| 2026-05-07 04:30 | 40.50963 | -89.33610 | 39101 ft | 586 kts | 38° |
| 2026-05-07 04:30 | 40.56711 | -89.26018 | 39095 ft | 584 kts | 38° |
| 2026-05-07 04:31 | 40.62404 | -89.18486 | 39099 ft | 584 kts | 38° |
| 2026-05-07 04:31 | 40.68142 | -89.10877 | 39096 ft | 585 kts | 38° |
| 2026-05-07 04:32 | 40.73869 | -89.03258 | 39095 ft | 586 kts | 38° |
| 2026-05-07 04:32 | 40.79606 | -88.95605 | 39094 ft | 586 kts | 38° |
| 2026-05-07 04:33 | 40.85332 | -88.87946 | 39091 ft | 586 kts | 38° |
| 2026-05-07 04:33 | 40.91024 | -88.80314 | 39118 ft | 586 kts | 39° |
| 2026-05-07 04:34 | 40.96740 | -88.72630 | 39090 ft | 584 kts | 39° |
| 2026-05-07 04:34 | 41.02430 | -88.64959 | 39087 ft | 583 kts | 39° |
| 2026-05-07 04:35 | 41.08111 | -88.57283 | 39095 ft | 583 kts | 39° |
| 2026-05-07 04:35 | 41.13785 | -88.49598 | 39113 ft | 583 kts | 39° |
| 2026-05-07 04:36 | 41.19431 | -88.41921 | 39083 ft | 579 kts | 39° |
| 2026-05-07 04:36 | 41.25050 | -88.34270 | 39080 ft | 579 kts | 39° |
| 2026-05-07 04:37 | 41.30675 | -88.26592 | 39078 ft | 579 kts | 39° |
| 2026-05-07 04:37 | 41.36291 | -88.18903 | 39087 ft | 578 kts | 40° |
| 2026-05-07 04:38 | 41.41876 | -88.11232 | 39076 ft | 576 kts | 40° |
| 2026-05-07 04:38 | 41.47424 | -88.03597 | 39074 ft | 576 kts | 40° |
| 2026-05-07 04:39 | 41.52352 | -87.95046 | 39083 ft | 586 kts | 52° |
| 2026-05-07 04:39 | 41.56766 | -87.85870 | 39079 ft | 587 kts | 54° |
| 2026-05-07 04:40 | 41.61057 | -87.76606 | 39072 ft | 585 kts | 54° |
| 2026-05-07 04:40 | 41.65334 | -87.67358 | 39069 ft | 585 kts | 54° |
| 2026-05-07 04:41 | 41.69628 | -87.58113 | 39064 ft | 585 kts | 54° |
| 2026-05-07 04:41 | 41.73901 | -87.48910 | 39064 ft | 586 kts | 54° |
| 2026-05-07 04:42 | 41.78198 | -87.39629 | 39061 ft | 583 kts | 54° |
| 2026-05-07 04:42 | 41.82454 | -87.30400 | 39058 ft | 582 kts | 54° |
| 2026-05-07 04:43 | 41.86709 | -87.21150 | 39057 ft | 583 kts | 54° |
| 2026-05-07 04:43 | 41.90966 | -87.11864 | 39055 ft | 583 kts | 54° |
| 2026-05-07 04:44 | 41.95207 | -87.02584 | 39099 ft | 583 kts | 55° |
| 2026-05-07 04:44 | 41.99434 | -86.93304 | 39043 ft | 580 kts | 55° |
| 2026-05-07 04:45 | 42.03621 | -86.84086 | 39049 ft | 581 kts | 55° |
| 2026-05-07 04:45 | 42.07830 | -86.74792 | 39039 ft | 581 kts | 55° |
| 2026-05-07 04:46 | 42.12042 | -86.65463 | 39038 ft | 582 kts | 55° |
| 2026-05-07 04:46 | 42.16231 | -86.56151 | 39044 ft | 581 kts | 55° |
| 2026-05-07 04:47 | 42.20418 | -86.46816 | 39020 ft | 580 kts | 55° |
| 2026-05-07 04:47 | 42.24558 | -86.37559 | 39022 ft | 580 kts | 55° |
| 2026-05-07 04:48 | 42.28721 | -86.28220 | 39017 ft | 580 kts | 55° |
| 2026-05-07 04:48 | 42.32876 | -86.18869 | 39027 ft | 580 kts | 56° |
| 2026-05-07 04:49 | 42.37028 | -86.09497 | 39029 ft | 579 kts | 56° |
| 2026-05-07 04:49 | 42.41127 | -86.00213 | 39025 ft | 579 kts | 56° |
| 2026-05-07 04:50 | 42.45252 | -85.90843 | 39025 ft | 578 kts | 56° |
| 2026-05-07 04:50 | 42.49367 | -85.81465 | 39023 ft | 579 kts | 56° |
| 2026-05-07 04:51 | 42.53473 | -85.72079 | 39060 ft | 579 kts | 56° |
| 2026-05-07 04:51 | 42.57559 | -85.62706 | 39012 ft | 576 kts | 56° |
| 2026-05-07 04:52 | 42.61627 | -85.53345 | 39011 ft | 575 kts | 56° |
| 2026-05-07 04:52 | 42.65667 | -85.44024 | 39009 ft | 575 kts | 56° |
| 2026-05-07 04:53 | 42.69718 | -85.34644 | 39015 ft | 576 kts | 56° |
| 2026-05-07 04:53 | 42.73772 | -85.25228 | 39016 ft | 577 kts | 56° |
| 2026-05-07 04:54 | 42.77824 | -85.15786 | 39013 ft | 577 kts | 56° |
| 2026-05-07 04:54 | 42.81181 | -85.07940 | 39012 ft | 577 kts | 56° |
| 2026-05-07 04:55 | 42.85213 | -84.98487 | 39009 ft | 577 kts | 57° |
| 2026-05-07 04:55 | 42.89244 | -84.89009 | 39012 ft | 578 kts | 57° |
| 2026-05-07 04:56 | 42.93240 | -84.79580 | 39014 ft | 576 kts | 57° |
| 2026-05-07 04:56 | 42.97235 | -84.70120 | 39014 ft | 575 kts | 57° |
| 2026-05-07 04:57 | 43.01226 | -84.60645 | 39006 ft | 575 kts | 57° |
| 2026-05-07 04:57 | 43.05208 | -84.51159 | 39004 ft | 575 kts | 57° |
| 2026-05-07 04:58 | 43.09181 | -84.41662 | 39015 ft | 575 kts | 57° |
| 2026-05-07 04:58 | 43.13142 | -84.32163 | 38997 ft | 573 kts | 57° |
| 2026-05-07 04:59 | 43.17083 | -84.22680 | 38995 ft | 573 kts | 57° |
| 2026-05-07 04:59 | 43.20999 | -84.13228 | 38996 ft | 573 kts | 57° |
| 2026-05-07 05:00 | 43.24931 | -84.03706 | 39000 ft | 573 kts | 58° |
| 2026-05-07 05:00 | 43.28852 | -83.94179 | 39000 ft | 573 kts | 58° |
| 2026-05-07 05:01 | 43.32760 | -83.84650 | 38982 ft | 573 kts | 58° |
| 2026-05-07 05:01 | 43.36666 | -83.75097 | 38981 ft | 573 kts | 58° |
| 2026-05-07 05:02 | 43.40557 | -83.65549 | 38985 ft | 573 kts | 58° |
| 2026-05-07 05:02 | 43.44421 | -83.56033 | 38981 ft | 573 kts | 58° |
| 2026-05-07 05:03 | 43.48304 | -83.46441 | 38984 ft | 573 kts | 58° |
| 2026-05-07 05:03 | 43.52172 | -83.36852 | 38997 ft | 573 kts | 58° |
| 2026-05-07 05:04 | 43.56040 | -83.27233 | 38998 ft | 573 kts | 58° |
| 2026-05-07 05:04 | 43.59895 | -83.17610 | 38995 ft | 573 kts | 59° |
| 2026-05-07 05:05 | 43.63751 | -83.07956 | 39004 ft | 574 kts | 59° |
| 2026-05-07 05:05 | 43.67601 | -82.98284 | 39001 ft | 574 kts | 59° |
| 2026-05-07 05:06 | 43.71438 | -82.88610 | 38987 ft | 574 kts | 59° |
| 2026-05-07 05:06 | 43.75242 | -82.78987 | 39002 ft | 574 kts | 59° |
| 2026-05-07 05:07 | 43.79064 | -82.69286 | 38996 ft | 575 kts | 59° |
| 2026-05-07 05:07 | 43.82887 | -82.59548 | 39005 ft | 574 kts | 59° |
| 2026-05-07 05:08 | 43.86689 | -82.49829 | 39008 ft | 573 kts | 59° |
| 2026-05-07 05:08 | 43.90481 | -82.40104 | 39006 ft | 573 kts | 59° |
| 2026-05-07 05:09 | 43.94268 | -82.30360 | 39008 ft | 575 kts | 59° |
| 2026-05-07 05:09 | 43.98129 | -82.20634 | 39020 ft | 572 kts | 54° |
| 2026-05-07 05:10 | 44.02717 | -82.11740 | 39010 ft | 569 kts | 50° |
| 2026-05-07 05:10 | 44.07488 | -82.02936 | 39010 ft | 569 kts | 49° |
| 2026-05-07 05:11 | 44.12267 | -81.94175 | 39011 ft | 569 kts | 50° |
| 2026-05-07 05:11 | 44.17036 | -81.85379 | 39007 ft | 568 kts | 50° |
| 2026-05-07 05:12 | 44.21780 | -81.76576 | 39007 ft | 567 kts | 50° |
| 2026-05-07 05:12 | 44.26507 | -81.67771 | 39007 ft | 567 kts | 50° |
| 2026-05-07 05:13 | 44.31233 | -81.58941 | 39027 ft | 568 kts | 50° |
| 2026-05-07 05:13 | 44.35915 | -81.50169 | 39006 ft | 566 kts | 50° |
| 2026-05-07 05:14 | 44.40617 | -81.41331 | 39009 ft | 566 kts | 50° |
| 2026-05-07 05:14 | 44.45309 | -81.32486 | 39008 ft | 566 kts | 50° |
| 2026-05-07 05:15 | 44.50000 | -81.23618 | 38999 ft | 566 kts | 50° |
| 2026-05-07 05:15 | 44.54685 | -81.14733 | 38992 ft | 567 kts | 50° |
| 2026-05-07 05:16 | 44.59359 | -81.05840 | 38987 ft | 567 kts | 50° |
| 2026-05-07 05:16 | 44.64038 | -80.96910 | 39005 ft | 567 kts | 51° |
| 2026-05-07 05:17 | 44.68691 | -80.88001 | 38976 ft | 564 kts | 51° |
| 2026-05-07 05:17 | 44.73309 | -80.79134 | 38994 ft | 565 kts | 51° |
| 2026-05-07 05:18 | 44.77953 | -80.70189 | 38994 ft | 565 kts | 51° |
| 2026-05-07 05:18 | 44.82586 | -80.61238 | 39010 ft | 565 kts | 51° |
| 2026-05-07 05:19 | 44.87205 | -80.52284 | 38993 ft | 564 kts | 51° |
| 2026-05-07 05:19 | 44.91809 | -80.43332 | 38984 ft | 564 kts | 51° |
| 2026-05-07 05:20 | 44.96384 | -80.34411 | 38994 ft | 564 kts | 51° |
| 2026-05-07 05:20 | 45.00980 | -80.25420 | 38998 ft | 564 kts | 52° |
| 2026-05-07 05:21 | 45.07846 | -80.11933 | 38983 ft | 563 kts | 52° |
| 2026-05-07 05:22 | 45.12415 | -80.02922 | 38986 ft | 563 kts | 52° |
| 2026-05-07 05:22 | 45.16982 | -79.93888 | 38980 ft | 562 kts | 52° |
| 2026-05-07 05:23 | 45.21531 | -79.84862 | 38978 ft | 562 kts | 52° |
| 2026-05-07 05:23 | 45.26073 | -79.75820 | 38974 ft | 562 kts | 52° |
| 2026-05-07 05:24 | 45.30575 | -79.66830 | 38971 ft | 562 kts | 52° |
| 2026-05-07 05:24 | 45.35096 | -79.57771 | 38970 ft | 560 kts | 52° |
| 2026-05-07 05:25 | 45.39599 | -79.48722 | 38970 ft | 559 kts | 52° |
| 2026-05-07 05:25 | 45.44095 | -79.39658 | 38956 ft | 561 kts | 52° |
| 2026-05-07 05:26 | 45.48593 | -79.30562 | 38970 ft | 561 kts | 53° |
| 2026-05-07 05:26 | 45.53073 | -79.21469 | 38970 ft | 560 kts | 53° |
| 2026-05-07 05:27 | 45.57539 | -79.12378 | 38945 ft | 559 kts | 53° |
| 2026-05-07 05:27 | 45.61967 | -79.03337 | 38959 ft | 559 kts | 53° |
| 2026-05-07 05:28 | 45.66422 | -78.94211 | 38944 ft | 559 kts | 53° |
| 2026-05-07 05:28 | 45.70863 | -78.85082 | 38942 ft | 559 kts | 53° |
| 2026-05-07 05:29 | 45.75295 | -78.75943 | 38936 ft | 559 kts | 53° |
| 2026-05-07 05:29 | 45.79719 | -78.66793 | 38933 ft | 559 kts | 53° |
| 2026-05-07 05:30 | 45.84136 | -78.57627 | 38927 ft | 558 kts | 53° |
| 2026-05-07 05:30 | 45.88537 | -78.48463 | 38912 ft | 557 kts | 54° |
| 2026-05-07 05:31 | 45.92939 | -78.39268 | 38919 ft | 559 kts | 54° |
| 2026-05-07 05:31 | 45.97331 | -78.30065 | 38933 ft | 559 kts | 54° |
| 2026-05-07 05:32 | 46.01709 | -78.20859 | 38915 ft | 557 kts | 54° |
| 2026-05-07 05:32 | 46.06051 | -78.11700 | 38909 ft | 556 kts | 54° |
| 2026-05-07 05:33 | 46.10402 | -78.02491 | 38902 ft | 556 kts | 54° |
| 2026-05-07 05:33 | 46.14754 | -77.93252 | 38900 ft | 556 kts | 54° |
| 2026-05-07 05:34 | 46.19096 | -77.84003 | 38895 ft | 557 kts | 54° |
| 2026-05-07 05:34 | 46.23413 | -77.74776 | 38895 ft | 557 kts | 54° |
| 2026-05-07 05:35 | 46.27744 | -77.65488 | 38898 ft | 557 kts | 54° |
| 2026-05-07 05:35 | 46.31362 | -77.57705 | 38893 ft | 556 kts | 55° |
| 2026-05-07 05:36 | 46.36368 | -77.46903 | 38889 ft | 556 kts | 55° |
| 2026-05-07 05:36 | 46.39942 | -77.39163 | 38887 ft | 556 kts | 55° |
| 2026-05-07 05:37 | 46.44233 | -77.29844 | 38881 ft | 556 kts | 55° |
| 2026-05-07 05:37 | 46.49213 | -77.18990 | 38881 ft | 555 kts | 55° |
| 2026-05-07 05:38 | 46.53475 | -77.09664 | 38874 ft | 553 kts | 55° |
| 2026-05-07 05:38 | 46.57729 | -77.00329 | 38867 ft | 553 kts | 55° |
| 2026-05-07 05:39 | 46.61981 | -76.90964 | 38864 ft | 554 kts | 56° |
| 2026-05-07 05:39 | 46.65503 | -76.83184 | 38860 ft | 553 kts | 56° |
| 2026-05-07 05:40 | 46.70440 | -76.72240 | 38853 ft | 553 kts | 56° |
| 2026-05-07 05:40 | 46.74657 | -76.62857 | 38851 ft | 553 kts | 56° |
| 2026-05-07 05:41 | 46.78858 | -76.53479 | 38842 ft | 553 kts | 56° |
| 2026-05-07 05:41 | 46.83029 | -76.44136 | 38842 ft | 552 kts | 56° |
| 2026-05-07 05:42 | 46.87213 | -76.34733 | 38843 ft | 552 kts | 56° |
| 2026-05-07 05:42 | 46.91392 | -76.25310 | 38840 ft | 552 kts | 56° |
| 2026-05-07 05:43 | 46.94860 | -76.17467 | 38841 ft | 552 kts | 56° |
| 2026-05-07 05:43 | 46.99694 | -76.06493 | 38837 ft | 551 kts | 57° |
| 2026-05-07 05:44 | 47.03163 | -75.98591 | 38837 ft | 550 kts | 57° |
| 2026-05-07 05:44 | 47.07969 | -75.87608 | 38822 ft | 550 kts | 57° |
| 2026-05-07 05:45 | 47.11411 | -75.79713 | 38833 ft | 551 kts | 57° |
| 2026-05-07 05:45 | 47.15533 | -75.70230 | 38831 ft | 551 kts | 57° |
| 2026-05-07 05:46 | 47.19649 | -75.60729 | 38831 ft | 550 kts | 57° |
| 2026-05-07 05:46 | 47.23749 | -75.51231 | 38829 ft | 550 kts | 57° |
| 2026-05-07 05:47 | 47.27848 | -75.41703 | 38828 ft | 550 kts | 57° |
| 2026-05-07 05:47 | 47.31931 | -75.32179 | 38815 ft | 549 kts | 57° |
| 2026-05-07 05:48 | 47.36006 | -75.22639 | 38826 ft | 550 kts | 57° |
| 2026-05-07 05:48 | 47.40072 | -75.13088 | 38823 ft | 550 kts | 57° |
| 2026-05-07 05:49 | 47.44107 | -75.03577 | 38825 ft | 550 kts | 57° |
| 2026-05-07 05:49 | 47.48155 | -74.94001 | 38821 ft | 549 kts | 58° |
| 2026-05-07 05:50 | 47.52196 | -74.84409 | 38823 ft | 549 kts | 58° |
| 2026-05-07 05:50 | 47.56222 | -74.74817 | 38819 ft | 549 kts | 58° |
| 2026-05-07 05:51 | 47.60252 | -74.65183 | 38817 ft | 550 kts | 58° |
| 2026-05-07 05:51 | 47.64271 | -74.55541 | 38823 ft | 549 kts | 58° |
| 2026-05-07 05:52 | 47.68274 | -74.45905 | 38820 ft | 549 kts | 58° |
| 2026-05-07 05:52 | 47.72245 | -74.36311 | 38823 ft | 549 kts | 58° |
| 2026-05-07 05:53 | 47.76232 | -74.26643 | 38826 ft | 549 kts | 58° |
| 2026-05-07 05:53 | 47.80215 | -74.16950 | 38818 ft | 549 kts | 58° |
| 2026-05-07 05:54 | 47.84196 | -74.07227 | 38818 ft | 549 kts | 58° |
| 2026-05-07 05:54 | 47.88155 | -73.97524 | 38818 ft | 549 kts | 58° |
| 2026-05-07 05:55 | 47.92088 | -73.87852 | 38812 ft | 549 kts | 59° |
| 2026-05-07 05:55 | 47.96033 | -73.78111 | 38819 ft | 548 kts | 59° |
| 2026-05-07 05:56 | 47.99973 | -73.68350 | 38820 ft | 548 kts | 59° |
| 2026-05-07 05:56 | 48.03236 | -73.60240 | 38807 ft | 548 kts | 59° |
| 2026-05-07 05:57 | 48.07812 | -73.48824 | 38817 ft | 548 kts | 59° |
| 2026-05-07 05:57 | 48.11722 | -73.39030 | 38813 ft | 547 kts | 59° |
| 2026-05-07 05:58 | 48.15590 | -73.29306 | 38814 ft | 547 kts | 59° |
| 2026-05-07 05:58 | 48.19470 | -73.19517 | 38815 ft | 546 kts | 59° |
| 2026-05-07 05:59 | 48.23341 | -73.09713 | 38817 ft | 546 kts | 59° |
| 2026-05-07 05:59 | 48.27208 | -72.99886 | 38819 ft | 546 kts | 60° |
| 2026-05-07 06:00 | 48.31061 | -72.90057 | 38817 ft | 545 kts | 60° |
| 2026-05-07 06:00 | 48.34907 | -72.80208 | 38821 ft | 546 kts | 60° |
| 2026-05-07 06:01 | 48.38739 | -72.70361 | 38818 ft | 546 kts | 60° |
| 2026-05-07 06:01 | 48.42540 | -72.60556 | 38836 ft | 546 kts | 60° |
| 2026-05-07 06:02 | 48.46357 | -72.50675 | 38812 ft | 545 kts | 60° |
| 2026-05-07 06:02 | 48.50160 | -72.40793 | 38802 ft | 546 kts | 60° |
| 2026-05-07 06:03 | 48.54073 | -72.30990 | 38784 ft | 546 kts | 53° |
| 2026-05-07 06:03 | 48.59115 | -72.22428 | 38793 ft | 545 kts | 45° |
| 2026-05-07 06:04 | 48.64455 | -72.14276 | 38806 ft | 546 kts | 44° |
| 2026-05-07 06:04 | 48.69843 | -72.06174 | 38799 ft | 546 kts | 44° |
| 2026-05-07 06:05 | 48.75217 | -71.98034 | 38794 ft | 546 kts | 44° |
| 2026-05-07 06:05 | 48.80570 | -71.89862 | 38798 ft | 546 kts | 44° |
| 2026-05-07 06:06 | 48.85909 | -71.81670 | 38787 ft | 546 kts | 45° |
| 2026-05-07 06:06 | 48.91219 | -71.73496 | 38788 ft | 546 kts | 45° |
| 2026-05-07 06:07 | 48.96555 | -71.65258 | 38791 ft | 546 kts | 45° |
| 2026-05-07 06:07 | 49.01853 | -71.57053 | 38788 ft | 545 kts | 45° |
| 2026-05-07 06:08 | 49.07168 | -71.48795 | 38785 ft | 545 kts | 45° |
| 2026-05-07 06:08 | 49.12480 | -71.40515 | 38782 ft | 545 kts | 45° |
| 2026-05-07 06:09 | 49.17777 | -71.32232 | 38784 ft | 545 kts | 45° |
| 2026-05-07 06:09 | 49.23067 | -71.23930 | 38786 ft | 545 kts | 45° |
| 2026-05-07 06:10 | 49.28354 | -71.15608 | 38782 ft | 545 kts | 45° |
| 2026-05-07 06:10 | 49.33630 | -71.07276 | 38787 ft | 545 kts | 45° |
| 2026-05-07 06:11 | 49.38907 | -70.98917 | 38783 ft | 545 kts | 46° |
| 2026-05-07 06:11 | 49.44168 | -70.90552 | 38782 ft | 544 kts | 46° |
| 2026-05-07 06:12 | 49.49428 | -70.82163 | 38780 ft | 544 kts | 46° |
| 2026-05-07 06:12 | 49.54643 | -70.73819 | 38779 ft | 544 kts | 46° |
| 2026-05-07 06:13 | 49.59887 | -70.65400 | 38777 ft | 544 kts | 46° |
| 2026-05-07 06:13 | 49.65124 | -70.56963 | 38777 ft | 544 kts | 46° |
| 2026-05-07 06:14 | 49.70356 | -70.48509 | 38780 ft | 544 kts | 46° |
| 2026-05-07 06:14 | 49.75579 | -70.40038 | 38779 ft | 544 kts | 46° |
| 2026-05-07 06:15 | 49.80793 | -70.31555 | 38780 ft | 544 kts | 46° |
| 2026-05-07 06:15 | 49.86005 | -70.23047 | 38779 ft | 544 kts | 46° |
| 2026-05-07 06:16 | 49.91211 | -70.14520 | 38780 ft | 545 kts | 47° |
| 2026-05-07 06:16 | 49.96387 | -70.06014 | 38778 ft | 545 kts | 47° |
| 2026-05-07 06:17 | 50.01571 | -69.97420 | 38775 ft | 545 kts | 49° |
| 2026-05-07 06:17 | 50.06333 | -69.88265 | 38790 ft | 544 kts | 53° |
| 2026-05-07 06:18 | 50.10914 | -69.78877 | 38779 ft | 544 kts | 53° |
| 2026-05-07 06:18 | 50.15546 | -69.69532 | 38783 ft | 544 kts | 53° |
| 2026-05-07 06:19 | 50.20211 | -69.60253 | 38781 ft | 544 kts | 52° |
| 2026-05-07 06:19 | 50.24894 | -69.50960 | 38784 ft | 544 kts | 53° |
| 2026-05-07 06:20 | 50.29533 | -69.41722 | 38784 ft | 544 kts | 53° |
| 2026-05-07 06:20 | 50.34196 | -69.32395 | 38782 ft | 544 kts | 53° |
| 2026-05-07 06:21 | 50.38844 | -69.23060 | 38766 ft | 543 kts | 53° |
| 2026-05-07 06:21 | 50.43493 | -69.13691 | 38789 ft | 544 kts | 53° |
| 2026-05-07 06:22 | 50.48129 | -69.04314 | 38787 ft | 544 kts | 53° |
| 2026-05-07 06:22 | 50.55075 | -68.90199 | 38788 ft | 544 kts | 53° |
| 2026-05-07 06:23 | 50.59673 | -68.80816 | 38795 ft | 544 kts | 53° |
| 2026-05-07 06:23 | 50.63510 | -68.72958 | 38790 ft | 545 kts | 53° |
| 2026-05-07 06:24 | 50.68904 | -68.61874 | 38788 ft | 545 kts | 54° |
| 2026-05-07 06:24 | 50.73508 | -68.52374 | 38785 ft | 545 kts | 54° |
| 2026-05-07 06:25 | 50.78111 | -68.42842 | 38759 ft | 545 kts | 54° |
| 2026-05-07 06:25 | 50.82677 | -68.33352 | 38789 ft | 545 kts | 54° |
| 2026-05-07 06:26 | 50.87264 | -68.23784 | 38788 ft | 545 kts | 54° |
| 2026-05-07 06:26 | 50.91841 | -68.14200 | 38793 ft | 545 kts | 54° |
| 2026-05-07 06:27 | 50.96409 | -68.04601 | 38792 ft | 545 kts | 54° |
| 2026-05-07 06:27 | 51.00976 | -67.94969 | 38796 ft | 545 kts | 54° |
| 2026-05-07 06:28 | 51.05500 | -67.85392 | 38803 ft | 545 kts | 54° |
| 2026-05-07 06:28 | 51.10050 | -67.75723 | 38803 ft | 545 kts | 54° |
| 2026-05-07 06:29 | 51.14593 | -67.66034 | 38808 ft | 546 kts | 55° |
| 2026-05-07 06:29 | 51.19129 | -67.56323 | 38793 ft | 546 kts | 55° |
| 2026-05-07 06:30 | 51.23657 | -67.46593 | 38806 ft | 546 kts | 55° |
| 2026-05-07 06:30 | 51.28184 | -67.36830 | 38809 ft | 546 kts | 55° |
| 2026-05-07 06:31 | 51.32697 | -67.27058 | 38808 ft | 546 kts | 55° |
| 2026-05-07 06:31 | 51.37174 | -67.17328 | 38809 ft | 546 kts | 55° |
| 2026-05-07 06:32 | 51.41672 | -67.07516 | 38804 ft | 546 kts | 55° |
| 2026-05-07 06:32 | 51.46163 | -66.97683 | 38811 ft | 546 kts | 55° |
| 2026-05-07 06:33 | 51.50640 | -66.87844 | 38809 ft | 547 kts | 56° |
| 2026-05-07 06:33 | 51.55120 | -66.77958 | 38809 ft | 547 kts | 56° |
| 2026-05-07 06:34 | 51.59584 | -66.68073 | 38808 ft | 547 kts | 56° |
| 2026-05-07 06:34 | 51.63292 | -66.59830 | 38822 ft | 547 kts | 56° |
| 2026-05-07 06:35 | 51.68494 | -66.48224 | 38814 ft | 547 kts | 56° |
| 2026-05-07 06:35 | 51.72192 | -66.39941 | 38814 ft | 547 kts | 56° |
| 2026-05-07 06:36 | 51.76628 | -66.29970 | 38813 ft | 547 kts | 56° |
| 2026-05-07 06:36 | 51.81052 | -66.19986 | 38808 ft | 547 kts | 56° |
| 2026-05-07 06:37 | 51.85473 | -66.09971 | 38823 ft | 547 kts | 56° |
| 2026-05-07 06:37 | 51.89894 | -65.99917 | 38813 ft | 548 kts | 56° |
| 2026-05-07 06:38 | 51.94306 | -65.89846 | 38816 ft | 548 kts | 56° |
| 2026-05-07 06:38 | 51.98673 | -65.79838 | 38821 ft | 548 kts | 56° |
| 2026-05-07 06:39 | 52.03070 | -65.69720 | 38820 ft | 548 kts | 56° |
| 2026-05-07 06:39 | 52.07463 | -65.59573 | 38820 ft | 548 kts | 56° |
| 2026-05-07 06:40 | 52.11843 | -65.49414 | 38823 ft | 548 kts | 56° |
| 2026-05-07 06:40 | 52.16214 | -65.39235 | 38827 ft | 548 kts | 56° |
| 2026-05-07 06:41 | 52.20577 | -65.29037 | 38821 ft | 548 kts | 56° |
| 2026-05-07 06:41 | 52.24923 | -65.18838 | 38818 ft | 548 kts | 57° |
| 2026-05-07 06:42 | 52.29265 | -65.08606 | 38821 ft | 548 kts | 57° |
| 2026-05-07 06:42 | 52.33596 | -64.98360 | 38824 ft | 547 kts | 57° |
| 2026-05-07 06:43 | 52.37886 | -64.88171 | 38811 ft | 547 kts | 57° |
| 2026-05-07 06:43 | 52.42184 | -64.77920 | 38821 ft | 546 kts | 57° |
| 2026-05-07 06:44 | 52.46477 | -64.67642 | 38827 ft | 546 kts | 57° |
| 2026-05-07 06:44 | 52.50760 | -64.57345 | 38831 ft | 546 kts | 57° |
| 2026-05-07 06:45 | 52.55033 | -64.47031 | 38827 ft | 546 kts | 57° |
| 2026-05-07 06:45 | 52.59300 | -64.36691 | 38830 ft | 545 kts | 57° |
| 2026-05-07 06:46 | 52.63518 | -64.26425 | 38826 ft | 545 kts | 57° |
| 2026-05-07 06:46 | 52.67757 | -64.16071 | 38827 ft | 545 kts | 57° |
| 2026-05-07 06:47 | 52.71990 | -64.05685 | 38821 ft | 545 kts | 57° |
| 2026-05-07 06:47 | 52.76210 | -63.95289 | 38803 ft | 545 kts | 58° |
| 2026-05-07 06:48 | 52.80420 | -63.84878 | 38815 ft | 545 kts | 58° |
| 2026-05-07 06:48 | 52.84622 | -63.74442 | 38819 ft | 545 kts | 58° |
| 2026-05-07 06:49 | 52.88823 | -63.63964 | 38815 ft | 545 kts | 58° |
| 2026-05-07 06:49 | 52.93004 | -63.53494 | 38818 ft | 545 kts | 58° |
| 2026-05-07 06:50 | 52.97175 | -63.43008 | 38823 ft | 545 kts | 58° |
| 2026-05-07 06:50 | 53.01315 | -63.32554 | 38823 ft | 545 kts | 58° |
| 2026-05-07 06:51 | 53.05466 | -63.22030 | 38823 ft | 545 kts | 58° |
| 2026-05-07 06:51 | 53.09612 | -63.11473 | 38824 ft | 545 kts | 58° |
| 2026-05-07 06:52 | 53.13745 | -63.00907 | 38823 ft | 545 kts | 58° |
| 2026-05-07 06:52 | 53.17875 | -62.90304 | 38836 ft | 545 kts | 58° |
| 2026-05-07 06:53 | 53.21988 | -62.79699 | 38832 ft | 545 kts | 59° |
| 2026-05-07 06:53 | 53.26098 | -62.69056 | 38834 ft | 545 kts | 59° |
| 2026-05-07 06:54 | 53.30199 | -62.58394 | 38835 ft | 545 kts | 59° |
| 2026-05-07 06:54 | 53.34287 | -62.47720 | 38837 ft | 545 kts | 59° |
| 2026-05-07 06:55 | 53.38339 | -62.37094 | 38840 ft | 544 kts | 59° |
| 2026-05-07 06:55 | 53.42403 | -62.26391 | 38840 ft | 544 kts | 59° |
| 2026-05-07 06:56 | 53.46456 | -62.15672 | 38842 ft | 544 kts | 59° |
| 2026-05-07 06:56 | 53.50506 | -62.04914 | 38811 ft | 544 kts | 59° |
| 2026-05-07 06:57 | 53.54544 | -61.94143 | 38844 ft | 544 kts | 59° |
| 2026-05-07 06:57 | 53.58567 | -61.83366 | 38845 ft | 544 kts | 59° |
| 2026-05-07 06:58 | 53.62581 | -61.72567 | 38845 ft | 544 kts | 59° |
| 2026-05-07 06:58 | 53.66580 | -61.61761 | 38847 ft | 543 kts | 60° |
| 2026-05-07 06:59 | 53.70571 | -61.50927 | 38847 ft | 543 kts | 60° |
| 2026-05-07 06:59 | 53.74530 | -61.40138 | 38850 ft | 543 kts | 60° |
| 2026-05-07 07:00 | 53.78499 | -61.29270 | 38850 ft | 543 kts | 60° |
| 2026-05-07 07:00 | 53.82463 | -61.18370 | 38852 ft | 543 kts | 60° |
| 2026-05-07 07:01 | 53.86413 | -61.07460 | 38850 ft | 543 kts | 60° |
| 2026-05-07 07:01 | 53.90350 | -60.96540 | 38846 ft | 543 kts | 60° |
| 2026-05-07 07:02 | 53.94276 | -60.85601 | 38849 ft | 543 kts | 60° |
| 2026-05-07 07:02 | 53.98166 | -60.74714 | 38852 ft | 543 kts | 60° |
| 2026-05-07 07:03 | 54.02076 | -60.63726 | 38855 ft | 543 kts | 60° |
| 2026-05-07 07:03 | 54.05973 | -60.52722 | 38853 ft | 543 kts | 61° |
| 2026-05-07 07:04 | 54.09858 | -60.41704 | 38854 ft | 543 kts | 61° |
| 2026-05-07 07:04 | 54.13706 | -60.30741 | 38855 ft | 542 kts | 61° |
| 2026-05-07 07:05 | 54.17577 | -60.19667 | 38860 ft | 543 kts | 61° |
| 2026-05-07 07:05 | 54.21433 | -60.08583 | 38859 ft | 543 kts | 61° |
| 2026-05-07 07:06 | 54.25283 | -59.97467 | 38845 ft | 543 kts | 61° |
| 2026-05-07 07:06 | 54.29111 | -59.86364 | 38866 ft | 542 kts | 61° |
| 2026-05-07 07:07 | 54.32932 | -59.75232 | 38866 ft | 542 kts | 61° |
| 2026-05-07 07:07 | 54.36742 | -59.64081 | 38866 ft | 542 kts | 62° |
| 2026-05-07 07:08 | 54.40548 | -59.52888 | 38867 ft | 542 kts | 62° |
| 2026-05-07 07:08 | 54.44336 | -59.41701 | 38869 ft | 542 kts | 62° |
| 2026-05-07 07:09 | 54.48161 | -59.30522 | 38854 ft | 543 kts | 57° |
| 2026-05-07 07:09 | 54.52735 | -59.20263 | 38856 ft | 544 kts | 52° |
| 2026-05-07 07:10 | 54.57528 | -59.10169 | 38855 ft | 545 kts | 51° |
| 2026-05-07 07:10 | 54.62358 | -59.00067 | 38872 ft | 545 kts | 51° |
| 2026-05-07 07:11 | 54.67167 | -58.89931 | 38871 ft | 545 kts | 52° |
| 2026-05-07 07:11 | 54.71954 | -58.79766 | 38867 ft | 545 kts | 52° |
| 2026-05-07 07:12 | 54.76704 | -58.69629 | 38855 ft | 544 kts | 52° |
| 2026-05-07 07:12 | 54.81460 | -58.59440 | 38861 ft | 544 kts | 52° |
| 2026-05-07 07:13 | 54.86212 | -58.49217 | 38866 ft | 543 kts | 52° |
| 2026-05-07 07:13 | 54.90951 | -58.38978 | 38862 ft | 543 kts | 52° |
| 2026-05-07 07:14 | 54.95643 | -58.28802 | 38862 ft | 543 kts | 52° |
| 2026-05-07 07:14 | 55.00360 | -58.18527 | 38862 ft | 543 kts | 52° |
| 2026-05-07 07:15 | 55.05032 | -58.08306 | 38867 ft | 543 kts | 52° |
| 2026-05-07 07:15 | 55.09727 | -57.97994 | 38867 ft | 543 kts | 52° |
| 2026-05-07 07:16 | 55.14403 | -57.87681 | 38865 ft | 542 kts | 52° |
| 2026-05-07 07:16 | 55.19081 | -57.77318 | 38873 ft | 542 kts | 53° |
| 2026-05-07 07:17 | 55.23754 | -57.66922 | 38876 ft | 542 kts | 53° |
| 2026-05-07 07:17 | 55.28407 | -57.56528 | 38875 ft | 542 kts | 53° |
| 2026-05-07 07:18 | 55.33052 | -57.46107 | 38881 ft | 542 kts | 53° |
| 2026-05-07 07:18 | 55.37683 | -57.35673 | 38881 ft | 542 kts | 53° |
| 2026-05-07 07:19 | 55.42305 | -57.25214 | 38883 ft | 542 kts | 53° |
| 2026-05-07 07:19 | 55.46892 | -57.14793 | 38886 ft | 541 kts | 53° |
| 2026-05-07 07:20 | 55.51497 | -57.04282 | 38883 ft | 542 kts | 53° |
| 2026-05-07 07:20 | 55.56059 | -56.93692 | 38896 ft | 541 kts | 55° |
| 2026-05-07 07:21 | 55.60405 | -56.82847 | 38896 ft | 541 kts | 56° |
| 2026-05-07 07:21 | 55.64721 | -56.71921 | 38897 ft | 540 kts | 56° |
| 2026-05-07 07:22 | 55.68318 | -56.62866 | 38898 ft | 540 kts | 56° |
| 2026-05-07 07:22 | 55.73363 | -56.50195 | 38907 ft | 541 kts | 56° |
| 2026-05-07 07:23 | 55.77701 | -56.39267 | 38913 ft | 541 kts | 56° |
| 2026-05-07 07:23 | 55.81296 | -56.30170 | 38910 ft | 540 kts | 56° |
| 2026-05-07 07:24 | 55.85610 | -56.19208 | 38913 ft | 540 kts | 56° |
| 2026-05-07 07:24 | 55.89911 | -56.08224 | 38914 ft | 540 kts | 56° |
| 2026-05-07 07:25 | 55.96349 | -55.91693 | 38915 ft | 540 kts | 57° |
| 2026-05-07 07:26 | 56.00624 | -55.80656 | 38917 ft | 540 kts | 57° |
| 2026-05-07 07:26 | 56.04865 | -55.69656 | 38923 ft | 540 kts | 57° |
| 2026-05-07 07:27 | 56.09116 | -55.58578 | 38932 ft | 540 kts | 57° |
| 2026-05-07 07:27 | 56.13359 | -55.47473 | 38933 ft | 540 kts | 57° |
| 2026-05-07 07:28 | 56.17588 | -55.36353 | 38930 ft | 539 kts | 57° |
| 2026-05-07 07:28 | 56.21806 | -55.25211 | 38930 ft | 539 kts | 57° |
| 2026-05-07 07:29 | 56.26014 | -55.14043 | 38933 ft | 539 kts | 57° |
| 2026-05-07 07:29 | 56.30210 | -55.02858 | 38938 ft | 539 kts | 58° |
| 2026-05-07 07:30 | 56.34396 | -54.91646 | 38938 ft | 539 kts | 58° |
| 2026-05-07 07:30 | 56.38574 | -54.80406 | 38944 ft | 539 kts | 58° |
| 2026-05-07 07:31 | 56.42739 | -54.69148 | 38942 ft | 539 kts | 58° |
| 2026-05-07 07:31 | 56.46874 | -54.57918 | 38944 ft | 539 kts | 58° |
| 2026-05-07 07:32 | 56.51025 | -54.46593 | 38949 ft | 539 kts | 58° |
| 2026-05-07 07:32 | 56.55161 | -54.35258 | 38949 ft | 539 kts | 58° |
| 2026-05-07 07:33 | 56.59283 | -54.23905 | 38947 ft | 539 kts | 58° |
| 2026-05-07 07:33 | 56.63398 | -54.12519 | 38947 ft | 539 kts | 58° |
| 2026-05-07 07:34 | 56.67477 | -54.01182 | 38953 ft | 539 kts | 59° |
| 2026-05-07 07:34 | 56.71567 | -53.89756 | 38945 ft | 539 kts | 59° |
| 2026-05-07 07:35 | 56.75651 | -53.78297 | 38958 ft | 538 kts | 59° |
| 2026-05-07 07:35 | 56.79715 | -53.66837 | 38959 ft | 538 kts | 59° |
| 2026-05-07 07:36 | 56.83771 | -53.55348 | 38960 ft | 538 kts | 59° |
| 2026-05-07 07:36 | 56.87816 | -53.43834 | 38961 ft | 538 kts | 59° |
| 2026-05-07 07:37 | 56.91845 | -53.32310 | 38965 ft | 538 kts | 59° |
| 2026-05-07 07:37 | 56.95865 | -53.20754 | 38966 ft | 538 kts | 59° |
| 2026-05-07 07:38 | 56.99850 | -53.09249 | 38969 ft | 538 kts | 59° |
| 2026-05-07 07:38 | 57.03851 | -52.97635 | 38971 ft | 538 kts | 60° |
| 2026-05-07 07:39 | 57.07844 | -52.85994 | 38973 ft | 538 kts | 60° |
| 2026-05-07 07:39 | 57.11825 | -52.74330 | 38974 ft | 538 kts | 60° |
| 2026-05-07 07:40 | 57.15794 | -52.62643 | 38974 ft | 538 kts | 60° |
| 2026-05-07 07:40 | 57.19757 | -52.50917 | 38979 ft | 539 kts | 60° |
| 2026-05-07 07:41 | 57.23706 | -52.39175 | 38979 ft | 539 kts | 60° |
| 2026-05-07 07:41 | 57.27651 | -52.27386 | 38979 ft | 539 kts | 60° |
| 2026-05-07 07:42 | 57.31554 | -52.15665 | 38977 ft | 538 kts | 60° |
| 2026-05-07 07:42 | 57.35468 | -52.03855 | 38982 ft | 539 kts | 60° |
| 2026-05-07 07:43 | 57.39379 | -51.91993 | 38986 ft | 539 kts | 60° |
| 2026-05-07 07:43 | 57.43276 | -51.80116 | 38988 ft | 539 kts | 60° |
| 2026-05-07 07:44 | 57.47165 | -51.68201 | 38986 ft | 539 kts | 61° |
| 2026-05-07 07:44 | 57.51041 | -51.56270 | 38988 ft | 540 kts | 61° |
| 2026-05-07 07:45 | 57.54912 | -51.44291 | 38988 ft | 540 kts | 61° |
| 2026-05-07 07:45 | 57.58748 | -51.32363 | 38990 ft | 540 kts | 61° |
| 2026-05-07 07:46 | 57.62596 | -51.20335 | 38995 ft | 540 kts | 61° |
| 2026-05-07 07:46 | 57.66438 | -51.08264 | 38998 ft | 541 kts | 61° |
| 2026-05-07 07:47 | 57.70276 | -50.96145 | 39000 ft | 542 kts | 61° |
| 2026-05-07 07:47 | 57.74104 | -50.83996 | 39001 ft | 542 kts | 61° |
| 2026-05-07 07:48 | 57.77899 | -50.71889 | 39002 ft | 542 kts | 61° |
| 2026-05-07 07:48 | 57.81699 | -50.59700 | 39004 ft | 542 kts | 61° |
| 2026-05-07 07:49 | 57.85492 | -50.47475 | 39006 ft | 542 kts | 61° |
| 2026-05-07 07:49 | 57.89272 | -50.35224 | 39001 ft | 541 kts | 61° |
| 2026-05-07 07:50 | 57.93026 | -50.22998 | 39010 ft | 539 kts | 61° |
| 2026-05-07 07:50 | 57.96766 | -50.10752 | 39013 ft | 539 kts | 61° |
| 2026-05-07 07:51 | 58.00490 | -49.98493 | 39017 ft | 538 kts | 61° |
| 2026-05-07 07:51 | 58.04222 | -49.86333 | 39014 ft | 538 kts | 60° |
| 2026-05-07 07:52 | 58.07990 | -49.74118 | 39020 ft | 538 kts | 60° |
| 2026-05-07 07:52 | 58.11746 | -49.61859 | 39029 ft | 538 kts | 61° |
| 2026-05-07 07:53 | 58.15485 | -49.49562 | 39028 ft | 538 kts | 61° |
| 2026-05-07 07:53 | 58.19209 | -49.37238 | 39034 ft | 538 kts | 61° |
| 2026-05-07 07:54 | 58.22895 | -49.24975 | 39035 ft | 538 kts | 61° |
| 2026-05-07 07:54 | 58.26593 | -49.12609 | 39036 ft | 538 kts | 61° |
| 2026-05-07 07:55 | 58.30279 | -49.00216 | 39043 ft | 538 kts | 61° |
| 2026-05-07 07:55 | 58.33949 | -48.87814 | 39046 ft | 538 kts | 61° |
| 2026-05-07 07:56 | 58.37605 | -48.75390 | 39055 ft | 538 kts | 61° |
| 2026-05-07 07:56 | 58.41248 | -48.62947 | 39057 ft | 538 kts | 61° |
| 2026-05-07 07:57 | 58.44882 | -48.50466 | 39063 ft | 538 kts | 61° |
| 2026-05-07 07:57 | 58.48477 | -48.38051 | 39068 ft | 537 kts | 61° |
| 2026-05-07 07:58 | 58.52080 | -48.25542 | 39070 ft | 536 kts | 61° |
| 2026-05-07 07:58 | 58.55668 | -48.13018 | 39090 ft | 536 kts | 61° |
| 2026-05-07 07:59 | 58.59245 | -48.00462 | 39086 ft | 536 kts | 62° |
| 2026-05-07 07:59 | 58.62807 | -47.87891 | 39097 ft | 535 kts | 61° |
| 2026-05-07 08:00 | 58.66344 | -47.75338 | 39102 ft | 534 kts | 61° |
| 2026-05-07 08:00 | 58.69869 | -47.62765 | 39114 ft | 534 kts | 61° |
| 2026-05-07 08:01 | 58.73380 | -47.50169 | 39128 ft | 534 kts | 62° |
| 2026-05-07 08:01 | 58.76855 | -47.37629 | 39131 ft | 533 kts | 61° |
| 2026-05-07 08:02 | 58.80329 | -47.25026 | 39142 ft | 531 kts | 61° |
| 2026-05-07 08:02 | 58.83787 | -47.12412 | 39142 ft | 531 kts | 62° |
| 2026-05-07 08:03 | 58.87221 | -46.99816 | 39148 ft | 531 kts | 62° |
| 2026-05-07 08:03 | 58.90658 | -46.87139 | 39150 ft | 531 kts | 62° |
| 2026-05-07 08:04 | 58.94064 | -46.74502 | 39160 ft | 529 kts | 62° |
| 2026-05-07 08:04 | 58.97431 | -46.61942 | 39171 ft | 528 kts | 62° |
| 2026-05-07 08:05 | 59.00803 | -46.49300 | 39173 ft | 528 kts | 61° |
| 2026-05-07 08:05 | 59.04163 | -46.36625 | 39188 ft | 527 kts | 61° |
| 2026-05-07 08:06 | 59.07507 | -46.23937 | 39185 ft | 526 kts | 61° |
| 2026-05-07 08:06 | 59.10817 | -46.11303 | 39198 ft | 523 kts | 61° |
| 2026-05-07 08:07 | 59.14109 | -45.98678 | 39198 ft | 523 kts | 61° |
| 2026-05-07 08:07 | 59.17372 | -45.86089 | 39214 ft | 523 kts | 61° |
| 2026-05-07 08:08 | 59.20642 | -45.73401 | 39212 ft | 523 kts | 62° |
| 2026-05-07 08:08 | 59.23890 | -45.60727 | 39227 ft | 520 kts | 61° |
| 2026-05-07 08:09 | 59.27105 | -45.48107 | 39252 ft | 518 kts | 62° |
| 2026-05-07 08:09 | 59.30311 | -45.35455 | 39252 ft | 518 kts | 62° |
| 2026-05-07 08:10 | 59.33480 | -45.22874 | 39258 ft | 518 kts | 62° |
| 2026-05-07 08:10 | 59.36657 | -45.10194 | 39254 ft | 517 kts | 61° |
| 2026-05-07 08:11 | 59.39790 | -44.97605 | 39265 ft | 511 kts | 62° |
| 2026-05-07 08:11 | 59.42894 | -44.85071 | 39271 ft | 510 kts | 62° |
| 2026-05-07 08:12 | 59.45986 | -44.72518 | 39291 ft | 510 kts | 62° |
| 2026-05-07 08:12 | 59.48546 | -44.62069 | 39287 ft | 510 kts | 62° |
| 2026-05-07 08:13 | 59.51615 | -44.49467 | 39295 ft | 507 kts | 62° |
| 2026-05-07 08:13 | 59.54612 | -44.37089 | 39302 ft | 500 kts | 62° |
| 2026-05-07 08:14 | 59.57594 | -44.24710 | 39309 ft | 498 kts | 62° |
| 2026-05-07 08:14 | 59.60556 | -44.12346 | 39308 ft | 499 kts | 62° |
| 2026-05-07 08:15 | 59.63510 | -43.99944 | 39328 ft | 499 kts | 62° |
| 2026-05-07 08:15 | 59.66453 | -43.87519 | 39328 ft | 499 kts | 62° |
| 2026-05-07 08:16 | 59.69383 | -43.75072 | 39350 ft | 499 kts | 62° |
| 2026-05-07 08:16 | 59.72307 | -43.62580 | 39350 ft | 499 kts | 62° |
| 2026-05-07 08:17 | 59.75198 | -43.50156 | 39339 ft | 499 kts | 62° |
| 2026-05-07 08:17 | 59.78095 | -43.37635 | 39363 ft | 499 kts | 62° |
| 2026-05-07 08:18 | 59.80977 | -43.25104 | 39350 ft | 497 kts | 62° |
| 2026-05-07 08:18 | 59.83837 | -43.12595 | 39357 ft | 497 kts | 63° |
| 2026-05-07 08:19 | 59.86669 | -43.00143 | 39359 ft | 497 kts | 63° |
| 2026-05-07 08:19 | 59.89504 | -42.87600 | 39365 ft | 497 kts | 63° |
| 2026-05-07 08:20 | 59.92331 | -42.75019 | 39388 ft | 497 kts | 63° |
| 2026-05-07 08:20 | 59.95147 | -42.62411 | 39366 ft | 498 kts | 63° |
| 2026-05-07 08:21 | 59.97953 | -42.49770 | 39365 ft | 498 kts | 63° |
| 2026-05-07 08:21 | 60.00751 | -42.37091 | 39368 ft | 498 kts | 63° |
| 2026-05-07 08:22 | 60.03530 | -42.24418 | 39365 ft | 498 kts | 63° |
| 2026-05-07 08:22 | 60.06307 | -42.11684 | 39376 ft | 500 kts | 63° |
| 2026-05-07 08:23 | 60.09070 | -41.98939 | 39364 ft | 504 kts | 63° |
| 2026-05-07 08:23 | 60.11852 | -41.86024 | 39370 ft | 505 kts | 63° |
| 2026-05-07 08:24 | 60.14621 | -41.73081 | 39371 ft | 505 kts | 63° |
| 2026-05-07 08:24 | 60.17379 | -41.60113 | 39371 ft | 505 kts | 63° |
| 2026-05-07 08:25 | 60.20125 | -41.47118 | 39373 ft | 504 kts | 63° |
| 2026-05-07 08:25 | 60.22853 | -41.34129 | 39377 ft | 503 kts | 64° |
| 2026-05-07 08:26 | 60.26912 | -41.14648 | 39378 ft | 503 kts | 64° |
| 2026-05-07 08:26 | 60.29587 | -41.01711 | 39378 ft | 503 kts | 64° |
| 2026-05-07 08:27 | 60.32265 | -40.88671 | 39385 ft | 503 kts | 64° |
| 2026-05-07 08:27 | 60.34925 | -40.75634 | 39380 ft | 501 kts | 64° |
| 2026-05-07 08:28 | 60.37570 | -40.62590 | 39383 ft | 501 kts | 64° |
| 2026-05-07 08:28 | 60.40201 | -40.49537 | 39377 ft | 501 kts | 64° |
| 2026-05-07 08:29 | 60.42822 | -40.36445 | 39378 ft | 501 kts | 64° |
| 2026-05-07 08:29 | 60.45425 | -40.23355 | 39395 ft | 501 kts | 63° |
| 2026-05-07 08:30 | 60.48015 | -40.10244 | 39384 ft | 501 kts | 63° |
| 2026-05-07 08:30 | 60.50577 | -39.97200 | 39385 ft | 500 kts | 63° |
| 2026-05-07 08:31 | 60.53135 | -39.84070 | 39385 ft | 499 kts | 63° |
| 2026-05-07 08:31 | 60.55675 | -39.70923 | 39384 ft | 499 kts | 64° |
| 2026-05-07 08:32 | 60.58199 | -39.57778 | 39394 ft | 498 kts | 63° |
| 2026-05-07 08:32 | 60.60687 | -39.44737 | 39388 ft | 497 kts | 64° |
| 2026-05-07 08:33 | 60.63177 | -39.31602 | 39388 ft | 497 kts | 64° |
| 2026-05-07 08:33 | 60.65653 | -39.18455 | 39387 ft | 497 kts | 64° |
| 2026-05-07 08:34 | 60.68118 | -39.05279 | 39384 ft | 497 kts | 64° |
| 2026-05-07 08:34 | 60.70569 | -38.92087 | 39384 ft | 495 kts | 65° |
| 2026-05-07 08:35 | 60.72989 | -38.78959 | 39388 ft | 492 kts | 65° |
| 2026-05-07 08:35 | 60.75385 | -38.65886 | 39388 ft | 491 kts | 65° |
| 2026-05-07 08:36 | 60.77777 | -38.52748 | 39389 ft | 492 kts | 65° |
| 2026-05-07 08:36 | 60.80136 | -38.39704 | 39390 ft | 492 kts | 65° |
| 2026-05-07 08:37 | 60.82496 | -38.26561 | 39390 ft | 491 kts | 66° |
| 2026-05-07 08:37 | 60.84833 | -38.13445 | 39390 ft | 489 kts | 66° |
| 2026-05-07 08:38 | 60.87159 | -38.00307 | 39392 ft | 489 kts | 66° |
| 2026-05-07 08:38 | 60.89471 | -37.87160 | 39392 ft | 490 kts | 66° |
| 2026-05-07 08:39 | 60.91774 | -37.73972 | 39395 ft | 490 kts | 66° |
| 2026-05-07 08:39 | 60.93675 | -37.63012 | 39398 ft | 490 kts | 67° |
| 2026-05-07 08:40 | 60.96348 | -37.47499 | 39397 ft | 492 kts | 67° |
| 2026-05-07 08:40 | 60.98622 | -37.34191 | 39398 ft | 492 kts | 67° |
| 2026-05-07 08:41 | 61.00882 | -37.20873 | 39398 ft | 492 kts | 67° |
| 2026-05-07 08:41 | 61.03112 | -37.07629 | 39398 ft | 492 kts | 67° |
| 2026-05-07 08:42 | 61.05348 | -36.94265 | 39403 ft | 493 kts | 68° |
| 2026-05-07 08:42 | 61.07576 | -36.80843 | 39400 ft | 494 kts | 68° |
| 2026-05-07 08:43 | 61.09790 | -36.67405 | 39403 ft | 494 kts | 68° |
| 2026-05-07 08:43 | 61.11994 | -36.53928 | 39402 ft | 494 kts | 68° |
| 2026-05-07 08:44 | 61.14183 | -36.40448 | 39404 ft | 494 kts | 68° |
| 2026-05-07 08:44 | 61.16353 | -36.26970 | 39406 ft | 490 kts | 67° |
| 2026-05-07 08:45 | 61.18481 | -36.13642 | 39413 ft | 485 kts | 67° |
| 2026-05-07 08:45 | 61.20593 | -36.00343 | 39412 ft | 485 kts | 67° |
| 2026-05-07 08:46 | 61.22683 | -35.87090 | 39411 ft | 486 kts | 67° |
| 2026-05-07 08:46 | 61.24769 | -35.73753 | 39411 ft | 486 kts | 68° |
| 2026-05-07 08:47 | 61.26844 | -35.60372 | 39418 ft | 486 kts | 67° |
| 2026-05-07 08:47 | 61.28903 | -35.46995 | 39414 ft | 486 kts | 67° |
| 2026-05-07 08:48 | 61.30950 | -35.33600 | 39411 ft | 486 kts | 68° |
| 2026-05-07 08:48 | 61.32973 | -35.20258 | 39416 ft | 486 kts | 68° |
| 2026-05-07 08:49 | 61.34997 | -35.06809 | 39413 ft | 487 kts | 68° |
| 2026-05-07 08:49 | 61.37009 | -34.93325 | 39421 ft | 487 kts | 68° |
| 2026-05-07 08:50 | 61.39013 | -34.79790 | 39414 ft | 488 kts | 68° |
| 2026-05-07 08:50 | 61.41002 | -34.66250 | 39411 ft | 488 kts | 68° |
| 2026-05-07 08:51 | 61.42979 | -34.52674 | 39413 ft | 488 kts | 68° |
| 2026-05-07 08:51 | 61.44943 | -34.39087 | 39414 ft | 488 kts | 68° |
| 2026-05-07 08:52 | 61.46899 | -34.25443 | 39410 ft | 489 kts | 69° |
| 2026-05-07 08:52 | 61.48825 | -34.11895 | 39408 ft | 489 kts | 69° |
| 2026-05-07 08:53 | 61.50751 | -33.98231 | 39416 ft | 489 kts | 69° |
| 2026-05-07 08:53 | 61.52663 | -33.84555 | 39411 ft | 489 kts | 69° |
| 2026-05-07 08:54 | 61.54562 | -33.70858 | 39404 ft | 489 kts | 69° |
| 2026-05-07 08:54 | 61.56451 | -33.57118 | 39416 ft | 489 kts | 69° |
| 2026-05-07 08:55 | 61.58322 | -33.43395 | 39400 ft | 490 kts | 69° |
| 2026-05-07 08:55 | 61.60184 | -33.29612 | 39401 ft | 490 kts | 69° |
| 2026-05-07 08:56 | 61.62019 | -33.15918 | 39400 ft | 490 kts | 70° |
| 2026-05-07 08:56 | 61.63853 | -33.02107 | 39402 ft | 490 kts | 70° |
| 2026-05-07 08:57 | 61.65677 | -32.88257 | 39410 ft | 490 kts | 70° |
| 2026-05-07 08:57 | 61.67483 | -32.74412 | 39400 ft | 490 kts | 70° |
| 2026-05-07 08:58 | 61.69274 | -32.60565 | 39390 ft | 490 kts | 70° |
| 2026-05-07 08:58 | 61.71053 | -32.46680 | 39389 ft | 490 kts | 70° |
| 2026-05-07 08:59 | 61.72807 | -32.32869 | 39387 ft | 490 kts | 70° |
| 2026-05-07 08:59 | 61.74559 | -32.18952 | 39401 ft | 491 kts | 71° |
| 2026-05-07 09:00 | 61.76294 | -32.05036 | 39390 ft | 490 kts | 71° |
| 2026-05-07 09:00 | 61.78018 | -31.91082 | 39390 ft | 490 kts | 71° |
| 2026-05-07 09:01 | 61.79725 | -31.77134 | 39382 ft | 490 kts | 71° |
| 2026-05-07 09:01 | 61.81419 | -31.63169 | 39373 ft | 490 kts | 71° |
| 2026-05-07 09:02 | 61.82817 | -31.51534 | 39402 ft | 490 kts | 71° |
| 2026-05-07 09:02 | 61.84753 | -31.35273 | 39369 ft | 490 kts | 71° |
| 2026-05-07 09:03 | 61.86400 | -31.21291 | 39367 ft | 490 kts | 72° |
| 2026-05-07 09:03 | 61.88035 | -31.07276 | 39377 ft | 490 kts | 72° |
| 2026-05-07 09:04 | 61.89385 | -30.95607 | 39366 ft | 490 kts | 72° |
| 2026-05-07 09:04 | 61.90996 | -30.81548 | 39372 ft | 490 kts | 72° |
| 2026-05-07 09:05 | 61.92590 | -30.67494 | 39371 ft | 490 kts | 72° |
| 2026-05-07 09:05 | 61.94170 | -30.53424 | 39353 ft | 490 kts | 72° |
| 2026-05-07 09:06 | 61.95738 | -30.39322 | 39354 ft | 490 kts | 72° |
| 2026-05-07 09:06 | 61.97289 | -30.25232 | 39353 ft | 490 kts | 72° |
| 2026-05-07 09:07 | 61.98826 | -30.11120 | 39367 ft | 490 kts | 72° |
| 2026-05-07 09:07 | 62.00352 | -29.96942 | 39580 ft | 493 kts | 73° |
| 2026-05-07 09:08 | 62.01037 | -29.89779 | 39754 ft | 493 kts | 75° |
| 2026-05-07 09:08 | 62.01648 | -29.82590 | 39932 ft | 494 kts | 76° |
| 2026-05-07 09:08 | 62.02231 | -29.75389 | 40086 ft | 494 kts | 76° |
| 2026-05-07 09:08 | 62.02810 | -29.68182 | 40247 ft | 494 kts | 76° |
| 2026-05-07 09:09 | 62.03393 | -29.60984 | 40383 ft | 493 kts | 76° |
| 2026-05-07 09:09 | 62.03975 | -29.53882 | 40525 ft | 493 kts | 76° |
| 2026-05-07 09:09 | 62.04570 | -29.46680 | 40658 ft | 493 kts | 76° |
| 2026-05-07 09:09 | 62.05166 | -29.39473 | 40792 ft | 493 kts | 76° |
| 2026-05-07 09:10 | 62.05760 | -29.32283 | 40959 ft | 493 kts | 76° |
| 2026-05-07 09:10 | 62.06350 | -29.25091 | 41123 ft | 492 kts | 76° |
| 2026-05-07 09:10 | 62.06937 | -29.17891 | 41261 ft | 492 kts | 77° |
| 2026-05-07 09:10 | 62.07520 | -29.10682 | 41327 ft | 494 kts | 77° |
| 2026-05-07 09:11 | 62.08683 | -28.96164 | 41325 ft | 499 kts | 77° |
| 2026-05-07 09:11 | 62.09836 | -28.81543 | 41318 ft | 499 kts | 77° |
| 2026-05-07 09:12 | 62.10972 | -28.66903 | 41317 ft | 498 kts | 77° |
| 2026-05-07 09:12 | 62.12091 | -28.52290 | 41314 ft | 498 kts | 77° |
| 2026-05-07 09:13 | 62.13187 | -28.37759 | 41313 ft | 498 kts | 77° |
| 2026-05-07 09:13 | 62.14275 | -28.23133 | 41306 ft | 498 kts | 78° |
| 2026-05-07 09:14 | 62.15349 | -28.08487 | 41309 ft | 498 kts | 78° |
| 2026-05-07 09:14 | 62.16406 | -27.93830 | 41306 ft | 498 kts | 78° |
| 2026-05-07 09:15 | 62.17449 | -27.79165 | 41309 ft | 498 kts | 78° |
| 2026-05-07 09:15 | 62.18477 | -27.64471 | 41292 ft | 499 kts | 78° |
| 2026-05-07 09:16 | 62.19490 | -27.49756 | 41293 ft | 499 kts | 78° |
| 2026-05-07 09:16 | 62.20487 | -27.35034 | 41289 ft | 499 kts | 78° |
| 2026-05-07 09:17 | 62.21468 | -27.20301 | 41289 ft | 499 kts | 79° |
| 2026-05-07 09:17 | 62.22435 | -27.05550 | 41293 ft | 500 kts | 79° |
| 2026-05-07 09:18 | 62.23385 | -26.90803 | 41279 ft | 500 kts | 79° |
| 2026-05-07 09:18 | 62.24322 | -26.76011 | 41269 ft | 500 kts | 79° |
| 2026-05-07 09:19 | 62.25242 | -26.61224 | 41284 ft | 500 kts | 79° |
| 2026-05-07 09:19 | 62.26140 | -26.46532 | 41274 ft | 500 kts | 79° |
| 2026-05-07 09:20 | 62.27035 | -26.31634 | 41296 ft | 500 kts | 80° |
| 2026-05-07 09:20 | 62.27903 | -26.16901 | 41276 ft | 500 kts | 80° |
| 2026-05-07 09:21 | 62.28762 | -26.02054 | 41277 ft | 500 kts | 80° |
| 2026-05-07 09:21 | 62.29604 | -25.87210 | 41257 ft | 500 kts | 80° |
| 2026-05-07 09:22 | 62.30430 | -25.72356 | 41265 ft | 500 kts | 80° |
| 2026-05-07 09:22 | 62.31241 | -25.57483 | 41268 ft | 501 kts | 81° |
| 2026-05-07 09:23 | 62.32036 | -25.42613 | 41255 ft | 501 kts | 81° |
| 2026-05-07 09:23 | 62.32815 | -25.27731 | 41251 ft | 501 kts | 81° |
| 2026-05-07 09:24 | 62.33574 | -25.12913 | 41251 ft | 501 kts | 81° |
| 2026-05-07 09:24 | 62.34323 | -24.97989 | 41240 ft | 501 kts | 81° |
| 2026-05-07 09:25 | 62.35055 | -24.83062 | 41250 ft | 501 kts | 81° |
| 2026-05-07 09:25 | 62.35772 | -24.68134 | 41241 ft | 501 kts | 81° |
| 2026-05-07 09:26 | 62.36468 | -24.53286 | 41235 ft | 501 kts | 82° |
| 2026-05-07 09:26 | 62.37152 | -24.38346 | 41236 ft | 501 kts | 82° |
| 2026-05-07 09:27 | 62.37819 | -24.23409 | 41227 ft | 501 kts | 82° |
| 2026-05-07 09:28 | 62.38792 | -24.00968 | 41222 ft | 501 kts | 82° |
| 2026-05-07 09:28 | 62.39420 | -23.86011 | 41216 ft | 501 kts | 83° |
| 2026-05-07 09:29 | 62.40031 | -23.71052 | 41205 ft | 501 kts | 83° |
| 2026-05-07 09:29 | 62.40624 | -23.56159 | 41206 ft | 501 kts | 83° |
| 2026-05-07 09:30 | 62.41204 | -23.41176 | 41208 ft | 501 kts | 83° |
| 2026-05-07 09:30 | 62.41768 | -23.26186 | 41212 ft | 501 kts | 83° |
| 2026-05-07 09:31 | 62.42316 | -23.11188 | 41201 ft | 502 kts | 83° |
| 2026-05-07 09:31 | 62.42849 | -22.96155 | 41198 ft | 502 kts | 83° |
| 2026-05-07 09:32 | 62.43366 | -22.81102 | 41198 ft | 502 kts | 83° |
| 2026-05-07 09:32 | 62.43867 | -22.66035 | 41198 ft | 502 kts | 84° |
| 2026-05-07 09:33 | 62.44349 | -22.51066 | 41201 ft | 503 kts | 83° |
| 2026-05-07 09:33 | 62.44818 | -22.35999 | 41194 ft | 503 kts | 84° |
| 2026-05-07 09:34 | 62.45273 | -22.20880 | 41181 ft | 504 kts | 84° |
| 2026-05-07 09:34 | 62.45709 | -22.05771 | 41181 ft | 503 kts | 84° |
| 2026-05-07 09:35 | 62.46128 | -21.90659 | 41175 ft | 504 kts | 84° |
| 2026-05-07 09:35 | 62.46533 | -21.75529 | 41190 ft | 504 kts | 84° |
| 2026-05-07 09:36 | 62.46921 | -21.60412 | 41172 ft | 504 kts | 85° |
| 2026-05-07 09:36 | 62.47293 | -21.45282 | 41170 ft | 504 kts | 85° |
| 2026-05-07 09:37 | 62.47647 | -21.30217 | 41154 ft | 505 kts | 85° |
| 2026-05-07 09:37 | 62.47986 | -21.15079 | 41154 ft | 504 kts | 84° |
| 2026-05-07 09:38 | 62.48309 | -20.99934 | 41155 ft | 505 kts | 85° |
| 2026-05-07 09:38 | 62.48615 | -20.84770 | 41150 ft | 504 kts | 86° |
| 2026-05-07 09:39 | 62.48904 | -20.69623 | 41147 ft | 504 kts | 86° |
| 2026-05-07 09:39 | 62.49177 | -20.54461 | 41143 ft | 504 kts | 86° |
| 2026-05-07 09:40 | 62.49434 | -20.39296 | 41140 ft | 504 kts | 86° |
| 2026-05-07 09:40 | 62.49675 | -20.24121 | 41135 ft | 504 kts | 86° |
| 2026-05-07 09:41 | 62.49900 | -20.08983 | 41139 ft | 504 kts | 87° |
| 2026-05-07 09:41 | 62.50582 | -19.93927 | 41136 ft | 502 kts | 79° |
| 2026-05-07 09:42 | 62.51784 | -19.79143 | 41130 ft | 502 kts | 78° |
| 2026-05-07 09:42 | 62.53059 | -19.64299 | 41128 ft | 502 kts | 78° |
| 2026-05-07 09:43 | 62.54322 | -19.49413 | 41133 ft | 502 kts | 78° |
| 2026-05-07 09:43 | 62.55557 | -19.34503 | 41128 ft | 503 kts | 78° |
| 2026-05-07 09:44 | 62.56774 | -19.19550 | 41126 ft | 503 kts | 78° |
| 2026-05-07 09:44 | 62.57975 | -19.04590 | 41127 ft | 503 kts | 79° |
| 2026-05-07 09:45 | 62.59159 | -18.89612 | 41130 ft | 504 kts | 78° |
| 2026-05-07 09:45 | 62.60330 | -18.74587 | 41133 ft | 504 kts | 79° |
| 2026-05-07 09:46 | 62.61487 | -18.59556 | 41122 ft | 505 kts | 79° |
| 2026-05-07 09:46 | 62.62621 | -18.44589 | 41124 ft | 505 kts | 79° |
| 2026-05-07 09:47 | 62.63745 | -18.29499 | 41118 ft | 505 kts | 79° |
| 2026-05-07 09:47 | 62.64852 | -18.14416 | 41119 ft | 505 kts | 79° |
| 2026-05-07 09:48 | 62.65947 | -17.99299 | 41117 ft | 506 kts | 79° |
| 2026-05-07 09:48 | 62.67025 | -17.84168 | 41113 ft | 506 kts | 79° |
| 2026-05-07 09:49 | 62.68082 | -17.69109 | 41106 ft | 506 kts | 79° |
| 2026-05-07 09:49 | 62.69126 | -17.53966 | 41105 ft | 506 kts | 79° |
| 2026-05-07 09:50 | 62.70156 | -17.38787 | 41103 ft | 506 kts | 80° |
| 2026-05-07 09:50 | 62.71004 | -17.26098 | 41106 ft | 505 kts | 81° |
| 2026-05-07 09:51 | 62.71999 | -17.10976 | 41097 ft | 507 kts | 81° |
| 2026-05-07 09:51 | 62.72981 | -16.95765 | 41096 ft | 507 kts | 81° |
| 2026-05-07 09:52 | 62.73948 | -16.80536 | 41089 ft | 506 kts | 81° |
| 2026-05-07 09:52 | 62.74897 | -16.65306 | 41078 ft | 506 kts | 81° |
| 2026-05-07 09:53 | 62.75832 | -16.50066 | 41076 ft | 506 kts | 82° |
| 2026-05-07 09:53 | 62.76752 | -16.34795 | 41074 ft | 507 kts | 82° |
| 2026-05-07 09:54 | 62.77648 | -16.19593 | 41069 ft | 507 kts | 82° |
| 2026-05-07 09:54 | 62.78534 | -16.04299 | 41068 ft | 507 kts | 82° |
| 2026-05-07 09:55 | 62.79403 | -15.89000 | 41058 ft | 507 kts | 82° |
| 2026-05-07 09:55 | 62.80257 | -15.73661 | 41060 ft | 507 kts | 82° |
| 2026-05-07 09:56 | 62.81093 | -15.58340 | 41056 ft | 507 kts | 82° |
| 2026-05-07 09:56 | 62.81906 | -15.43128 | 41053 ft | 507 kts | 82° |
| 2026-05-07 09:57 | 62.82710 | -15.27778 | 41055 ft | 507 kts | 82° |
| 2026-05-07 09:57 | 62.83496 | -15.12422 | 41056 ft | 507 kts | 83° |
| 2026-05-07 09:58 | 62.84266 | -14.97058 | 41049 ft | 508 kts | 83° |
| 2026-05-07 09:58 | 62.85018 | -14.81714 | 41049 ft | 507 kts | 83° |
| 2026-05-07 09:59 | 62.85754 | -14.66320 | 41038 ft | 507 kts | 83° |
| 2026-05-07 09:59 | 62.86472 | -14.50967 | 41024 ft | 507 kts | 83° |
| 2026-05-07 10:00 | 62.87171 | -14.35667 | 41016 ft | 507 kts | 84° |
| 2026-05-07 10:00 | 62.87861 | -14.20179 | 41020 ft | 508 kts | 84° |
| 2026-05-07 10:01 | 62.88527 | -14.04840 | 41014 ft | 509 kts | 84° |
| 2026-05-07 10:01 | 62.89181 | -13.89370 | 41011 ft | 508 kts | 84° |
| 2026-05-07 10:02 | 62.89816 | -13.73944 | 41005 ft | 509 kts | 84° |
| 2026-05-07 10:02 | 62.90436 | -13.58488 | 41006 ft | 509 kts | 84° |
| 2026-05-07 10:03 | 62.91040 | -13.43001 | 41004 ft | 509 kts | 84° |
| 2026-05-07 10:03 | 62.91627 | -13.27500 | 41004 ft | 510 kts | 85° |
| 2026-05-07 10:04 | 62.92197 | -13.11993 | 41001 ft | 510 kts | 85° |
| 2026-05-07 10:04 | 62.92748 | -12.96537 | 41001 ft | 510 kts | 85° |
| 2026-05-07 10:05 | 62.93285 | -12.81014 | 40993 ft | 510 kts | 85° |
| 2026-05-07 10:05 | 62.93805 | -12.65461 | 40976 ft | 510 kts | 85° |
| 2026-05-07 10:06 | 62.94308 | -12.49891 | 40968 ft | 510 kts | 85° |
| 2026-05-07 10:06 | 62.94791 | -12.34400 | 40966 ft | 510 kts | 85° |
| 2026-05-07 10:07 | 62.95260 | -12.18825 | 40968 ft | 510 kts | 86° |
| 2026-05-07 10:07 | 62.95712 | -12.03237 | 40950 ft | 510 kts | 86° |
| 2026-05-07 10:08 | 62.96147 | -11.87649 | 40951 ft | 511 kts | 86° |
| 2026-05-07 10:08 | 62.96565 | -11.72034 | 40951 ft | 512 kts | 86° |
| 2026-05-07 10:09 | 62.96966 | -11.56404 | 40955 ft | 512 kts | 86° |
| 2026-05-07 10:09 | 62.97347 | -11.40860 | 40957 ft | 511 kts | 87° |
| 2026-05-07 10:10 | 62.97714 | -11.25233 | 40955 ft | 512 kts | 87° |
| 2026-05-07 10:10 | 62.98063 | -11.09577 | 40952 ft | 514 kts | 87° |
| 2026-05-07 10:11 | 62.98396 | -10.93897 | 40952 ft | 514 kts | 88° |
| 2026-05-07 10:11 | 62.98713 | -10.78194 | 40959 ft | 513 kts | 88° |
| 2026-05-07 10:12 | 62.99011 | -10.62504 | 40954 ft | 514 kts | 88° |
| 2026-05-07 10:12 | 62.99292 | -10.46791 | 40955 ft | 514 kts | 88° |
| 2026-05-07 10:13 | 62.99555 | -10.31086 | 40940 ft | 513 kts | 88° |
| 2026-05-07 10:13 | 62.99802 | -10.15344 | 40935 ft | 513 kts | 88° |
| 2026-05-07 10:14 | 63.00029 | -9.99734 | 40936 ft | 514 kts | 88° |
| 2026-05-07 10:14 | 63.00444 | -9.84020 | 40937 ft | 513 kts | 85° |
| 2026-05-07 10:15 | 63.01047 | -9.68325 | 40935 ft | 515 kts | 85° |
| 2026-05-07 10:15 | 63.01615 | -9.52575 | 40939 ft | 516 kts | 86° |
| 2026-05-07 10:16 | 63.02126 | -9.36789 | 40940 ft | 517 kts | 86° |
| 2026-05-07 10:16 | 63.02603 | -9.21008 | 40944 ft | 516 kts | 86° |
| 2026-05-07 10:17 | 63.03061 | -9.05203 | 40940 ft | 516 kts | 86° |
| 2026-05-07 10:17 | 63.03503 | -8.89378 | 40942 ft | 517 kts | 87° |
| 2026-05-07 10:18 | 63.03929 | -8.73569 | 40943 ft | 517 kts | 87° |
| 2026-05-07 10:18 | 63.04335 | -8.57847 | 40946 ft | 517 kts | 87° |
| 2026-05-07 10:19 | 63.04726 | -8.42025 | 40948 ft | 518 kts | 87° |
| 2026-05-07 10:19 | 63.05100 | -8.26188 | 40948 ft | 517 kts | 87° |
| 2026-05-07 10:20 | 63.05456 | -8.10340 | 40954 ft | 517 kts | 88° |
| 2026-05-07 10:20 | 63.05795 | -7.94482 | 40951 ft | 518 kts | 88° |
| 2026-05-07 10:21 | 63.06116 | -7.78619 | 40954 ft | 517 kts | 88° |
| 2026-05-07 10:21 | 63.06418 | -7.62758 | 40950 ft | 517 kts | 88° |
| 2026-05-07 10:22 | 63.06701 | -7.46989 | 40955 ft | 517 kts | 88° |
| 2026-05-07 10:22 | 63.06969 | -7.31094 | 40955 ft | 518 kts | 88° |
| 2026-05-07 10:23 | 63.07219 | -7.15200 | 40953 ft | 518 kts | 89° |
| 2026-05-07 10:23 | 63.07452 | -6.99292 | 40941 ft | 519 kts | 89° |
| 2026-05-07 10:24 | 63.07667 | -6.83341 | 40944 ft | 520 kts | 89° |
| 2026-05-07 10:24 | 63.07864 | -6.67399 | 40950 ft | 520 kts | 89° |
| 2026-05-07 10:25 | 63.08043 | -6.51465 | 40953 ft | 520 kts | 89° |
| 2026-05-07 10:25 | 63.08205 | -6.35521 | 40953 ft | 521 kts | 89° |
| 2026-05-07 10:26 | 63.08347 | -6.19659 | 40964 ft | 520 kts | 90° |
| 2026-05-07 10:26 | 63.08472 | -6.03714 | 40964 ft | 519 kts | 89° |
| 2026-05-07 10:27 | 63.08580 | -5.87789 | 40964 ft | 519 kts | 90° |
| 2026-05-07 10:27 | 63.08669 | -5.71833 | 40969 ft | 518 kts | 90° |
| 2026-05-07 10:28 | 63.08741 | -5.55912 | 40966 ft | 518 kts | 90° |
| 2026-05-07 10:28 | 63.08795 | -5.39988 | 40977 ft | 519 kts | 90° |
| 2026-05-07 10:29 | 63.08830 | -5.24064 | 40969 ft | 519 kts | 90° |
| 2026-05-07 10:29 | 63.08848 | -5.08137 | 40980 ft | 519 kts | 90° |
| 2026-05-07 10:30 | 63.08842 | -4.84340 | 40980 ft | 518 kts | 91° |
| 2026-05-07 10:30 | 63.08815 | -4.68405 | 40986 ft | 518 kts | 91° |
| 2026-05-07 10:31 | 63.08771 | -4.52484 | 40983 ft | 518 kts | 91° |
| 2026-05-07 10:31 | 63.08708 | -4.36611 | 40993 ft | 517 kts | 91° |
| 2026-05-07 10:32 | 63.08629 | -4.20739 | 40994 ft | 516 kts | 91° |
| 2026-05-07 10:32 | 63.08532 | -4.04985 | 40996 ft | 516 kts | 91° |
| 2026-05-07 10:33 | 63.08417 | -3.89123 | 41002 ft | 516 kts | 91° |
| 2026-05-07 10:33 | 63.08284 | -3.73269 | 41002 ft | 516 kts | 91° |
| 2026-05-07 10:34 | 63.08134 | -3.57393 | 40994 ft | 518 kts | 92° |
| 2026-05-07 10:34 | 63.07965 | -3.41507 | 40999 ft | 518 kts | 92° |
| 2026-05-07 10:35 | 63.07780 | -3.25712 | 41004 ft | 518 kts | 92° |
| 2026-05-07 10:35 | 63.07576 | -3.09824 | 41003 ft | 518 kts | 92° |
| 2026-05-07 10:36 | 63.07354 | -2.93934 | 41006 ft | 518 kts | 92° |
| 2026-05-07 10:36 | 63.07114 | -2.78032 | 41008 ft | 518 kts | 92° |
| 2026-05-07 10:37 | 63.06901 | -2.64812 | 41012 ft | 518 kts | 92° |
| 2026-05-07 10:37 | 63.06628 | -2.48929 | 41011 ft | 518 kts | 92° |
| 2026-05-07 10:38 | 63.06338 | -2.33031 | 41016 ft | 518 kts | 93° |
| 2026-05-07 10:38 | 63.06030 | -2.17144 | 41019 ft | 519 kts | 93° |
| 2026-05-07 10:39 | 63.05703 | -2.01237 | 41025 ft | 519 kts | 93° |
| 2026-05-07 10:39 | 63.05359 | -1.85326 | 41027 ft | 519 kts | 93° |
| 2026-05-07 10:40 | 63.04999 | -1.69517 | 41028 ft | 519 kts | 93° |
| 2026-05-07 10:40 | 63.04619 | -1.53617 | 41030 ft | 519 kts | 94° |
| 2026-05-07 10:41 | 63.04221 | -1.37718 | 41033 ft | 520 kts | 94° |
| 2026-05-07 10:41 | 63.03805 | -1.21805 | 41032 ft | 520 kts | 94° |
| 2026-05-07 10:42 | 63.03371 | -1.05882 | 41035 ft | 520 kts | 94° |
| 2026-05-07 10:42 | 63.02919 | -0.89982 | 41039 ft | 520 kts | 94° |
| 2026-05-07 10:43 | 63.02449 | -0.74065 | 41039 ft | 520 kts | 94° |
| 2026-05-07 10:43 | 63.01965 | -0.58289 | 41043 ft | 520 kts | 94° |
| 2026-05-07 10:44 | 63.01459 | -0.42384 | 41044 ft | 520 kts | 95° |
| 2026-05-07 10:44 | 63.00936 | -0.26504 | 41042 ft | 520 kts | 95° |
| 2026-05-07 10:45 | 63.00395 | -0.10619 | 41042 ft | 520 kts | 95° |
| 2026-05-07 10:45 | 62.99862 | 0.05221 | 41042 ft | 520 kts | 93° |
| 2026-05-07 10:46 | 62.99763 | 0.21169 | 41045 ft | 520 kts | 90° |
| 2026-05-07 10:46 | 62.99809 | 0.37089 | 41048 ft | 520 kts | 90° |
| 2026-05-07 10:47 | 62.99778 | 0.53003 | 41048 ft | 520 kts | 91° |
| 2026-05-07 10:47 | 62.99677 | 0.68813 | 41050 ft | 520 kts | 91° |
| 2026-05-07 10:48 | 62.99542 | 0.84749 | 41050 ft | 521 kts | 91° |
| 2026-05-07 10:48 | 62.99390 | 1.00696 | 41056 ft | 521 kts | 91° |
| 2026-05-07 10:49 | 62.99223 | 1.16645 | 41056 ft | 521 kts | 92° |
| 2026-05-07 10:49 | 62.99039 | 1.32580 | 41058 ft | 521 kts | 92° |
| 2026-05-07 10:50 | 62.98838 | 1.48435 | 41060 ft | 521 kts | 92° |
| 2026-05-07 10:50 | 62.98618 | 1.64384 | 41061 ft | 521 kts | 92° |
| 2026-05-07 10:51 | 62.98380 | 1.80337 | 41061 ft | 522 kts | 92° |
| 2026-05-07 10:51 | 62.98124 | 1.96299 | 41061 ft | 522 kts | 92° |
| 2026-05-07 10:52 | 62.97850 | 2.12249 | 41067 ft | 522 kts | 92° |
| 2026-05-07 10:52 | 62.97558 | 2.28177 | 41063 ft | 522 kts | 93° |
| 2026-05-07 10:53 | 62.97247 | 2.44159 | 41070 ft | 522 kts | 93° |
| 2026-05-07 10:53 | 62.96921 | 2.60024 | 41072 ft | 522 kts | 93° |
| 2026-05-07 10:54 | 62.96575 | 2.75981 | 41072 ft | 522 kts | 93° |
| 2026-05-07 10:54 | 62.96210 | 2.91953 | 41072 ft | 522 kts | 93° |
| 2026-05-07 10:55 | 62.95827 | 3.07908 | 41081 ft | 523 kts | 94° |
| 2026-05-07 10:55 | 62.95427 | 3.23846 | 41077 ft | 523 kts | 94° |
| 2026-05-07 10:56 | 62.95008 | 3.39795 | 41083 ft | 523 kts | 94° |
| 2026-05-07 10:56 | 62.94571 | 3.55762 | 41083 ft | 523 kts | 94° |
| 2026-05-07 10:57 | 62.94119 | 3.71616 | 41086 ft | 523 kts | 94° |
| 2026-05-07 10:57 | 62.93647 | 3.87549 | 41086 ft | 523 kts | 94° |
| 2026-05-07 10:58 | 62.93155 | 4.03520 | 41088 ft | 524 kts | 94° |
| 2026-05-07 10:58 | 62.92646 | 4.19488 | 41094 ft | 524 kts | 95° |
| 2026-05-07 10:59 | 62.92119 | 4.35425 | 41094 ft | 524 kts | 95° |
| 2026-05-07 10:59 | 62.91574 | 4.51350 | 41100 ft | 524 kts | 95° |
| 2026-05-07 11:00 | 62.91010 | 4.67300 | 41102 ft | 524 kts | 95° |
| 2026-05-07 11:00 | 62.90431 | 4.83186 | 41105 ft | 525 kts | 95° |
| 2026-05-07 11:01 | 62.89831 | 4.99132 | 41103 ft | 524 kts | 95° |
| 2026-05-07 11:01 | 62.89213 | 5.15069 | 41105 ft | 524 kts | 95° |
| 2026-05-07 11:02 | 62.88576 | 5.31026 | 41104 ft | 525 kts | 96° |
| 2026-05-07 11:02 | 62.87926 | 5.46852 | 41105 ft | 525 kts | 96° |
| 2026-05-07 11:03 | 62.87254 | 5.62789 | 41105 ft | 525 kts | 96° |
| 2026-05-07 11:03 | 62.86563 | 5.78719 | 41110 ft | 525 kts | 96° |
| 2026-05-07 11:04 | 62.85854 | 5.94647 | 41110 ft | 525 kts | 96° |
| 2026-05-07 11:04 | 62.85127 | 6.10579 | 41110 ft | 526 kts | 96° |
| 2026-05-07 11:05 | 62.84380 | 6.26531 | 41113 ft | 526 kts | 97° |
| 2026-05-07 11:05 | 62.83618 | 6.42439 | 41107 ft | 526 kts | 97° |
| 2026-05-07 11:06 | 62.82841 | 6.58249 | 41112 ft | 526 kts | 97° |
| 2026-05-07 11:06 | 62.82041 | 6.74164 | 41117 ft | 526 kts | 97° |
| 2026-05-07 11:07 | 62.81225 | 6.90047 | 41122 ft | 526 kts | 97° |
| 2026-05-07 11:07 | 62.80388 | 7.05974 | 41125 ft | 526 kts | 97° |
| 2026-05-07 11:08 | 62.79535 | 7.21851 | 41130 ft | 526 kts | 97° |
| 2026-05-07 11:08 | 62.78665 | 7.37702 | 41132 ft | 526 kts | 98° |
| 2026-05-07 11:09 | 62.77776 | 7.53554 | 41101 ft | 526 kts | 98° |
| 2026-05-07 11:09 | 62.76867 | 7.69441 | 41107 ft | 527 kts | 98° |
| 2026-05-07 11:10 | 62.75942 | 7.85296 | 41097 ft | 527 kts | 98° |
| 2026-05-07 11:10 | 62.74997 | 8.01165 | 41098 ft | 527 kts | 98° |
| 2026-05-07 11:11 | 62.74041 | 8.16922 | 41098 ft | 527 kts | 98° |
| 2026-05-07 11:11 | 62.73060 | 8.32772 | 41097 ft | 527 kts | 98° |
| 2026-05-07 11:12 | 62.72062 | 8.48612 | 41101 ft | 527 kts | 98° |
| 2026-05-07 11:12 | 62.71045 | 8.64462 | 41103 ft | 527 kts | 99° |
| 2026-05-07 11:13 | 62.70011 | 8.80265 | 41107 ft | 527 kts | 99° |
| 2026-05-07 11:13 | 62.68961 | 8.96067 | 41105 ft | 527 kts | 99° |
| 2026-05-07 11:14 | 62.67897 | 9.11782 | 41110 ft | 527 kts | 99° |
| 2026-05-07 11:14 | 62.66808 | 9.27583 | 41111 ft | 527 kts | 99° |
| 2026-05-07 11:15 | 62.65704 | 9.43348 | 41112 ft | 527 kts | 99° |
| 2026-05-07 11:15 | 62.64580 | 9.59120 | 41103 ft | 527 kts | 99° |
| 2026-05-07 11:16 | 62.63440 | 9.74872 | 41099 ft | 527 kts | 100° |
| 2026-05-07 11:16 | 62.62279 | 9.90642 | 41089 ft | 527 kts | 100° |
| 2026-05-07 11:17 | 62.61103 | 10.06379 | 41093 ft | 528 kts | 100° |
| 2026-05-07 11:17 | 62.59910 | 10.22088 | 41083 ft | 527 kts | 100° |
| 2026-05-07 11:18 | 62.58699 | 10.37784 | 41061 ft | 527 kts | 100° |
| 2026-05-07 11:18 | 62.57470 | 10.53481 | 41078 ft | 527 kts | 101° |
| 2026-05-07 11:19 | 62.56226 | 10.69129 | 41072 ft | 527 kts | 101° |
| 2026-05-07 11:19 | 62.54963 | 10.84779 | 41071 ft | 527 kts | 101° |
| 2026-05-07 11:20 | 62.53686 | 11.00383 | 41069 ft | 527 kts | 101° |
| 2026-05-07 11:20 | 62.52397 | 11.15902 | 41068 ft | 527 kts | 101° |
| 2026-05-07 11:21 | 62.51083 | 11.31502 | 41074 ft | 526 kts | 101° |
| 2026-05-07 11:21 | 62.49752 | 11.47087 | 41073 ft | 526 kts | 102° |
| 2026-05-07 11:22 | 62.48402 | 11.62665 | 41074 ft | 526 kts | 102° |
| 2026-05-07 11:22 | 62.47036 | 11.78223 | 41075 ft | 526 kts | 102° |
| 2026-05-07 11:23 | 62.45660 | 11.93686 | 41075 ft | 527 kts | 102° |
| 2026-05-07 11:23 | 62.44256 | 12.09253 | 41077 ft | 527 kts | 102° |
| 2026-05-07 11:24 | 62.42816 | 12.24769 | 41073 ft | 527 kts | 103° |
| 2026-05-07 11:24 | 62.41143 | 12.40168 | 41075 ft | 527 kts | 105° |
| 2026-05-07 11:25 | 62.39396 | 12.55521 | 41076 ft | 527 kts | 105° |
| 2026-05-07 11:25 | 62.37952 | 12.68285 | 41073 ft | 527 kts | 105° |
| 2026-05-07 11:26 | 62.35940 | 12.86135 | 41074 ft | 527 kts | 105° |
| 2026-05-07 11:26 | 62.34200 | 13.01467 | 41075 ft | 527 kts | 105° |
| 2026-05-07 11:27 | 62.32729 | 13.14299 | 41074 ft | 527 kts | 105° |
| 2026-05-07 11:27 | 62.30957 | 13.29588 | 41071 ft | 527 kts | 106° |
| 2026-05-07 11:28 | 62.29168 | 13.44855 | 41072 ft | 527 kts | 106° |
| 2026-05-07 11:28 | 62.27373 | 13.60019 | 41074 ft | 527 kts | 106° |
| 2026-05-07 11:29 | 62.25550 | 13.75253 | 41069 ft | 527 kts | 106° |
| 2026-05-07 11:29 | 62.23708 | 13.90493 | 41074 ft | 527 kts | 106° |
| 2026-05-07 11:30 | 62.21850 | 14.05707 | 41072 ft | 527 kts | 107° |
| 2026-05-07 11:30 | 62.19974 | 14.20918 | 41058 ft | 527 kts | 107° |
| 2026-05-07 11:31 | 62.18083 | 14.36096 | 41053 ft | 527 kts | 107° |
| 2026-05-07 11:31 | 62.16177 | 14.51237 | 41046 ft | 527 kts | 107° |
| 2026-05-07 11:32 | 62.13285 | 14.73935 | 41055 ft | 528 kts | 107° |
| 2026-05-07 11:33 | 62.11348 | 14.88952 | 41058 ft | 528 kts | 107° |
| 2026-05-07 11:33 | 62.09379 | 15.04072 | 41063 ft | 528 kts | 108° |
| 2026-05-07 11:34 | 62.07397 | 15.19141 | 41056 ft | 528 kts | 108° |
| 2026-05-07 11:34 | 62.05396 | 15.34220 | 41051 ft | 528 kts | 108° |
| 2026-05-07 11:35 | 62.03381 | 15.49254 | 41057 ft | 528 kts | 108° |
| 2026-05-07 11:35 | 62.01346 | 15.64296 | 41059 ft | 528 kts | 108° |
| 2026-05-07 11:36 | 61.99298 | 15.79293 | 41058 ft | 528 kts | 108° |
| 2026-05-07 11:36 | 61.97230 | 15.94294 | 41059 ft | 528 kts | 109° |
| 2026-05-07 11:37 | 61.95146 | 16.09280 | 41052 ft | 528 kts | 109° |
| 2026-05-07 11:37 | 61.93064 | 16.24108 | 41053 ft | 527 kts | 109° |
| 2026-05-07 11:38 | 61.90949 | 16.39035 | 41050 ft | 527 kts | 109° |
| 2026-05-07 11:38 | 61.88820 | 16.53930 | 41057 ft | 527 kts | 109° |
| 2026-05-07 11:39 | 61.86674 | 16.68814 | 41035 ft | 527 kts | 110° |
| 2026-05-07 11:39 | 61.84513 | 16.83671 | 41074 ft | 527 kts | 110° |
| 2026-05-07 11:40 | 61.82339 | 16.98481 | 41061 ft | 526 kts | 110° |
| 2026-05-07 11:40 | 61.80167 | 17.13150 | 41073 ft | 526 kts | 110° |
| 2026-05-07 11:41 | 61.77960 | 17.27926 | 41087 ft | 526 kts | 110° |
| 2026-05-07 11:41 | 61.75742 | 17.42658 | 41087 ft | 527 kts | 110° |
| 2026-05-07 11:42 | 61.73504 | 17.57385 | 41084 ft | 527 kts | 110° |
| 2026-05-07 11:42 | 61.71251 | 17.72093 | 41088 ft | 527 kts | 111° |
| 2026-05-07 11:43 | 61.68981 | 17.86784 | 41086 ft | 527 kts | 111° |
| 2026-05-07 11:43 | 61.66693 | 18.01467 | 41072 ft | 527 kts | 111° |
| 2026-05-07 11:44 | 61.64392 | 18.16117 | 41087 ft | 528 kts | 111° |
| 2026-05-07 11:44 | 61.62070 | 18.30770 | 41090 ft | 528 kts | 111° |
| 2026-05-07 11:45 | 61.59730 | 18.45423 | 41088 ft | 528 kts | 111° |
| 2026-05-07 11:45 | 61.57378 | 18.60030 | 41088 ft | 528 kts | 111° |
| 2026-05-07 11:46 | 61.55012 | 18.74605 | 41078 ft | 528 kts | 112° |
| 2026-05-07 11:46 | 61.52642 | 18.89089 | 41086 ft | 528 kts | 112° |
| 2026-05-07 11:47 | 61.50244 | 19.03620 | 41086 ft | 528 kts | 112° |
| 2026-05-07 11:47 | 61.47828 | 19.18150 | 41086 ft | 528 kts | 112° |
| 2026-05-07 11:48 | 61.45400 | 19.32640 | 41046 ft | 528 kts | 112° |
| 2026-05-07 11:48 | 61.42955 | 19.47114 | 41086 ft | 528 kts | 112° |
| 2026-05-07 11:49 | 61.40493 | 19.61573 | 41088 ft | 528 kts | 112° |
| 2026-05-07 11:49 | 61.38019 | 19.75991 | 41089 ft | 528 kts | 113° |
| 2026-05-07 11:50 | 61.35528 | 19.90396 | 41086 ft | 528 kts | 113° |
| 2026-05-07 11:50 | 61.33021 | 20.04785 | 41080 ft | 528 kts | 113° |
| 2026-05-07 11:51 | 61.30503 | 20.19126 | 41088 ft | 527 kts | 113° |
| 2026-05-07 11:51 | 61.27971 | 20.33436 | 41089 ft | 527 kts | 113° |
| 2026-05-07 11:52 | 61.25439 | 20.47636 | 41090 ft | 527 kts | 114° |
| 2026-05-07 11:52 | 61.22882 | 20.61875 | 41089 ft | 527 kts | 114° |
| 2026-05-07 11:53 | 61.20306 | 20.76108 | 41090 ft | 527 kts | 114° |
| 2026-05-07 11:53 | 61.17716 | 20.90320 | 41089 ft | 527 kts | 114° |
| 2026-05-07 11:54 | 61.15114 | 21.04491 | 41089 ft | 527 kts | 114° |
| 2026-05-07 11:54 | 61.12492 | 21.18662 | 41089 ft | 526 kts | 114° |
| 2026-05-07 11:55 | 61.09862 | 21.32779 | 41080 ft | 523 kts | 114° |
| 2026-05-07 11:55 | 61.07290 | 21.46520 | 40738 ft | 498 kts | 115° |
| 2026-05-07 11:55 | 61.06046 | 21.53131 | 39936 ft | 492 kts | 115° |
| 2026-05-07 11:56 | 61.04803 | 21.59693 | 39022 ft | 490 kts | 115° |
| 2026-05-07 11:56 | 61.03552 | 21.66259 | 37737 ft | 493 kts | 116° |
| 2026-05-07 11:56 | 61.02288 | 21.72866 | 36422 ft | 497 kts | 116° |
| 2026-05-07 11:56 | 61.01050 | 21.79340 | 35840 ft | 484 kts | 116° |
| 2026-05-07 11:57 | 60.99817 | 21.85797 | 35260 ft | 474 kts | 116° |
| 2026-05-07 11:57 | 60.98601 | 21.92122 | 34601 ft | 477 kts | 117° |
| 2026-05-07 11:57 | 60.97367 | 21.98494 | 33879 ft | 481 kts | 117° |
| 2026-05-07 11:57 | 60.96120 | 22.04905 | 33078 ft | 484 kts | 118° |
| 2026-05-07 11:58 | 60.94880 | 22.11270 | 32335 ft | 486 kts | 118° |
| 2026-05-07 11:58 | 60.93618 | 22.17737 | 31626 ft | 487 kts | 118° |
| 2026-05-07 11:58 | 60.92361 | 22.24172 | 31107 ft | 484 kts | 118° |
| 2026-05-07 11:58 | 60.91108 | 22.30580 | 30554 ft | 481 kts | 119° |
| 2026-05-07 11:59 | 60.89863 | 22.36925 | 29953 ft | 479 kts | 119° |
| 2026-05-07 11:59 | 60.88615 | 22.43251 | 29380 ft | 475 kts | 119° |
| 2026-05-07 11:59 | 60.87391 | 22.49451 | 28825 ft | 459 kts | 119° |
| 2026-05-07 11:59 | 60.86215 | 22.55419 | 28270 ft | 448 kts | 120° |
| 2026-05-07 12:00 | 60.84926 | 22.61161 | 27889 ft | 434 kts | 129° |
| 2026-05-07 12:00 | 60.83380 | 22.66435 | 27515 ft | 430 kts | 130° |
| 2026-05-07 12:00 | 60.81794 | 22.71586 | 27027 ft | 425 kts | 131° |
| 2026-05-07 12:00 | 60.80186 | 22.76658 | 26507 ft | 423 kts | 131° |
| 2026-05-07 12:01 | 60.78574 | 22.81670 | 25982 ft | 421 kts | 131° |
| 2026-05-07 12:01 | 60.76960 | 22.86657 | 25456 ft | 420 kts | 131° |
| 2026-05-07 12:01 | 60.75347 | 22.91637 | 24926 ft | 418 kts | 131° |
| 2026-05-07 12:01 | 60.73741 | 22.96597 | 24395 ft | 417 kts | 131° |
| 2026-05-07 12:02 | 60.72143 | 23.01535 | 23856 ft | 417 kts | 130° |
| 2026-05-07 12:02 | 60.70545 | 23.06468 | 23241 ft | 416 kts | 130° |
| 2026-05-07 12:02 | 60.68956 | 23.11376 | 22680 ft | 412 kts | 130° |
| 2026-05-07 12:02 | 60.67386 | 23.16220 | 22164 ft | 408 kts | 129° |
| 2026-05-07 12:03 | 60.65822 | 23.21032 | 21621 ft | 405 kts | 129° |
| 2026-05-07 12:03 | 60.64271 | 23.25795 | 21090 ft | 402 kts | 129° |
| 2026-05-07 12:03 | 60.62748 | 23.30458 | 20568 ft | 399 kts | 129° |
| 2026-05-07 12:03 | 60.61212 | 23.35150 | 20047 ft | 397 kts | 129° |
| 2026-05-07 12:04 | 60.59687 | 23.39798 | 19510 ft | 394 kts | 129° |
| 2026-05-07 12:04 | 60.58168 | 23.44419 | 18995 ft | 392 kts | 129° |
| 2026-05-07 12:04 | 60.56653 | 23.49016 | 18444 ft | 390 kts | 129° |
| 2026-05-07 12:04 | 60.55143 | 23.53591 | 17880 ft | 388 kts | 129° |
| 2026-05-07 12:05 | 60.53652 | 23.58101 | 17354 ft | 384 kts | 128° |
| 2026-05-07 12:05 | 60.52221 | 23.62425 | 16843 ft | 380 kts | 128° |
| 2026-05-07 12:05 | 60.50770 | 23.66797 | 16333 ft | 376 kts | 128° |
| 2026-05-07 12:05 | 60.49309 | 23.71195 | 15806 ft | 373 kts | 128° |
| 2026-05-07 12:06 | 60.47870 | 23.75528 | 15325 ft | 369 kts | 128° |
| 2026-05-07 12:06 | 60.46432 | 23.79830 | 14814 ft | 366 kts | 128° |
| 2026-05-07 12:06 | 60.45047 | 23.84036 | 14629 ft | 351 kts | 126° |
| 2026-05-07 12:06 | 60.44155 | 23.88444 | 14512 ft | 328 kts | 103° |
| 2026-05-07 12:07 | 60.44103 | 23.92943 | 14416 ft | 315 kts | 85° |
| 2026-05-07 12:07 | 60.44342 | 23.97332 | 14031 ft | 314 kts | 83° |
| 2026-05-07 12:07 | 60.44610 | 24.01726 | 13641 ft | 312 kts | 84° |
| 2026-05-07 12:07 | 60.44872 | 24.06067 | 13274 ft | 309 kts | 83° |
| 2026-05-07 12:08 | 60.45128 | 24.10360 | 12913 ft | 305 kts | 84° |
| 2026-05-07 12:08 | 60.45372 | 24.14603 | 12578 ft | 302 kts | 84° |
| 2026-05-07 12:08 | 60.45609 | 24.18798 | 12235 ft | 298 kts | 84° |
| 2026-05-07 12:08 | 60.45843 | 24.22951 | 11893 ft | 295 kts | 84° |
| 2026-05-07 12:09 | 60.46067 | 24.27057 | 11564 ft | 291 kts | 85° |
| 2026-05-07 12:09 | 60.46230 | 24.31075 | 11237 ft | 288 kts | 86° |
| 2026-05-07 12:09 | 60.46375 | 24.35087 | 10898 ft | 284 kts | 86° |
| 2026-05-07 12:09 | 60.46522 | 24.39065 | 10581 ft | 280 kts | 86° |
| 2026-05-07 12:10 | 60.46669 | 24.42984 | 10250 ft | 277 kts | 85° |
| 2026-05-07 12:10 | 60.46816 | 24.46859 | 9925 ft | 275 kts | 86° |
| 2026-05-07 12:10 | 60.46967 | 24.50837 | 9670 ft | 289 kts | 85° |
| 2026-05-07 12:10 | 60.47124 | 24.54918 | 9554 ft | 291 kts | 85° |
| 2026-05-07 12:11 | 60.47226 | 24.57599 | 9182 ft | 284 kts | 85° |
| 2026-05-07 12:11 | 60.47212 | 24.62955 | 8622 ft | 288 kts | 97° |
| 2026-05-07 12:11 | 60.47008 | 24.65609 | 8460 ft | 286 kts | 99° |
| 2026-05-07 12:11 | 60.46539 | 24.70882 | 7900 ft | 284 kts | 99° |
| 2026-05-07 12:12 | 60.46303 | 24.73480 | 7670 ft | 283 kts | 99° |
| 2026-05-07 12:12 | 60.45949 | 24.77399 | 7333 ft | 280 kts | 99° |
| 2026-05-07 12:12 | 60.45600 | 24.81258 | 6987 ft | 278 kts | 99° |
| 2026-05-07 12:12 | 60.45254 | 24.85105 | 6664 ft | 277 kts | 98° |
| 2026-05-07 12:13 | 60.44912 | 24.88927 | 6334 ft | 273 kts | 99° |
| 2026-05-07 12:13 | 60.44841 | 24.93723 | 6168 ft | 248 kts | 74° |
| 2026-05-07 12:13 | 60.45287 | 24.95830 | 6111 ft | 237 kts | 54° |
| 2026-05-07 12:13 | 60.46304 | 24.98379 | 5949 ft | 231 kts | 45° |
| 2026-05-07 12:14 | 60.47399 | 25.00768 | 5756 ft | 232 kts | 46° |
| 2026-05-07 12:14 | 60.48506 | 25.03176 | 5525 ft | 235 kts | 47° |
| 2026-05-07 12:14 | 60.49619 | 25.05619 | 5277 ft | 235 kts | 47° |
| 2026-05-07 12:14 | 60.50726 | 25.08057 | 5041 ft | 235 kts | 47° |
| 2026-05-07 12:15 | 60.51759 | 25.10607 | 4772 ft | 235 kts | 58° |
| 2026-05-07 12:15 | 60.52214 | 25.13728 | 4546 ft | 231 kts | 90° |
| 2026-05-07 12:15 | 60.51780 | 25.16769 | 4386 ft | 222 kts | 122° |
| 2026-05-07 12:15 | 60.50796 | 25.19009 | 4252 ft | 209 kts | 137° |
| 2026-05-07 12:16 | 60.49751 | 25.20904 | 4073 ft | 193 kts | 139° |
| 2026-05-07 12:16 | 60.48756 | 25.22689 | 3956 ft | 191 kts | 138° |
| 2026-05-07 12:16 | 60.47763 | 25.24432 | 3860 ft | 182 kts | 142° |
| 2026-05-07 12:16 | 60.46675 | 25.25439 | 3787 ft | 163 kts | 171° |
| 2026-05-07 12:17 | 60.45606 | 25.25182 | 3698 ft | 150 kts | 202° |
| 2026-05-07 12:17 | 60.44797 | 25.23985 | 3537 ft | 145 kts | 226° |
| 2026-05-07 12:17 | 60.44141 | 25.22492 | 3360 ft | 141 kts | 229° |
| 2026-05-07 12:17 | 60.43521 | 25.21065 | 3169 ft | 143 kts | 227° |
| 2026-05-07 12:18 | 60.42819 | 25.19521 | 3020 ft | 145 kts | 226° |
| 2026-05-07 12:18 | 60.42124 | 25.17984 | 2879 ft | 150 kts | 227° |
| 2026-05-07 12:18 | 60.41431 | 25.16400 | 2659 ft | 150 kts | 227° |
| 2026-05-07 12:18 | 60.40731 | 25.14841 | 2458 ft | 149 kts | 226° |
| 2026-05-07 12:19 | 60.40014 | 25.13257 | 2226 ft | 152 kts | 226° |
| 2026-05-07 12:19 | 60.39314 | 25.11713 | 2050 ft | 151 kts | 225° |
| 2026-05-07 12:19 | 60.38607 | 25.10147 | 1842 ft | 150 kts | 225° |
| 2026-05-07 12:19 | 60.37921 | 25.08625 | 1628 ft | 141 kts | 226° |
| 2026-05-07 12:20 | 60.37281 | 25.07207 | 1448 ft | 133 kts | 225° |
| 2026-05-07 12:20 | 60.36659 | 25.05834 | 1261 ft | 132 kts | 225° |
| 2026-05-07 12:20 | 60.36039 | 25.04466 | 1066 ft | 131 kts | 225° |
| 2026-05-07 12:20 | 60.35417 | 25.03094 | 785 ft | 134 kts | 224° |
| 2026-05-07 12:21 | 60.34799 | 25.01736 | 652 ft | 131 kts | 224° |
| 2026-05-07 12:21 | 60.34181 | 25.00340 | 530 ft | 134 kts | 224° |
| 2026-05-07 12:21 | 60.33553 | 24.98954 | 373 ft | 132 kts | 222° |
| 2026-05-07 12:21 | 60.32929 | 24.97588 | 234 ft | 130 kts | 223° |
| 2026-05-07 12:22 | 60.32390 | 24.96419 | 171 ft | 71 kts | 228° |
| 2026-05-07 12:22 | 60.32210 | 24.96017 | 171 ft | 31 kts | 228° |
| 2026-05-07 12:22 | 60.32056 | 24.95739 | 167 ft | 26 kts | 209° |
| 2026-05-07 12:22 | 60.31932 | 24.95634 | 166 ft | 7 kts | 199° |
| 2026-05-07 12:23 | 60.31863 | 24.95594 | 166 ft | 12 kts | 187° |
| 2026-05-07 12:23 | 60.31839 | 24.95603 | 166 ft | 5 kts | 157° |
| 2026-05-07 12:23 | 60.31794 | 24.95620 | 166 ft | 8 kts | 184° |
| 2026-05-07 12:23 | 60.31743 | 24.95549 | 165 ft | 11 kts | 227° |
| 2026-05-07 12:24 | 60.31681 | 24.95413 | 165 ft | 15 kts | 227° |
| 2026-05-07 12:24 | 60.31637 | 24.95318 | 164 ft | 1 kts | 227° |
| 2026-05-07 12:24 | 60.31617 | 24.95272 | 164 ft | 7 kts | 227° |
| 2026-05-07 12:24 | 60.31572 | 24.95173 | 163 ft | 11 kts | 227° |
| 2026-05-07 12:25 | 60.31513 | 24.95046 | 162 ft | 10 kts | 227° |
| 2026-05-07 12:25 | 60.31469 | 24.94976 | 162 ft | 8 kts | 193° |
| 2026-05-07 12:25 | 60.31421 | 24.95032 | 162 ft | 9 kts | 131° |
| 2026-05-07 12:25 | 60.31373 | 24.95131 | 163 ft | 11 kts | 136° |
| 2026-05-07 12:26 | 60.31315 | 24.95242 | 164 ft | 12 kts | 137° |
| 2026-05-07 12:26 | 60.31270 | 24.95325 | 165 ft | 2 kts | 137° |
| 2026-05-07 12:26 | 60.31256 | 24.95350 | 165 ft | 4 kts | 137° |
| 2026-05-07 12:26 | 60.31231 | 24.95396 | 166 ft | 6 kts | 137° |
| 2026-05-07 12:27 | 60.31197 | 24.95459 | 167 ft | 8 kts | 137° |
| 2026-05-07 12:27 | 60.31164 | 24.95548 | 168 ft | 8 kts | 105° |
| 2026-05-07 12:27 | 60.31185 | 24.95643 | 169 ft | 8 kts | 49° |
| 2026-05-07 12:27 | 60.31229 | 24.95745 | 169 ft | 11 kts | 48° |
| 2026-05-07 12:28 | 60.31274 | 24.95838 | 170 ft | 6 kts | 35° |
| 2026-05-07 12:28 | 60.31295 | 24.95838 | 170 ft | 3 kts | 342° |
| 2026-05-07 12:28 | 60.31309 | 24.95802 | 170 ft | 5 kts | 304° |
| 2026-05-07 12:28 | 60.31332 | 24.95748 | 169 ft | 4 kts | 314° |
| 2026-05-07 12:29 | 60.31333 | 24.95746 | 169 ft | 0 kts | 314° |